<?xml version="1.0" encoding="UTF-8" standalone="no" ?>
<gpx xmlns="http://www.topografix.com/GPX/1/1" xmlns:xsi="http://www.w3.org/2001/XMLSchema-instance" xsi:schemaLocation="http://www.topografix.com/GPX/1/1 http://www.topografix.com/GPX/1/1/gpx.xsd" version="1.1" creator="VisuGPX - https://www.visugpx.com">
  <metadata>
    <name>Reco des J2S</name>
    <desc><![CDATA[Reco du nouveau parcours VTT des Jeux de Sophia]]></desc>
  </metadata>
  <trk>
    <name><![CDATA[Jeux de Sophia - Reco]]></name>
    <trkseg>
      <trkpt lat="43.62838" lon="7.03611">
        <ele>199.68933105469</ele>
        <time>2012-06-11T10:19:03Z</time>
      </trkpt>
      <trkpt lat="43.62846" lon="7.03619">
        <ele>199.19764709473</ele>
        <time>2012-06-11T10:19:10Z</time>
      </trkpt>
      <trkpt lat="43.62863" lon="7.03628">
        <ele>198.02737426758</ele>
        <time>2012-06-11T10:19:15Z</time>
      </trkpt>
      <trkpt lat="43.62874" lon="7.03633">
        <ele>194.35159301758</ele>
        <time>2012-06-11T10:19:19Z</time>
      </trkpt>
      <trkpt lat="43.62884" lon="7.03639">
        <ele>191.6395111084</ele>
        <time>2012-06-11T10:19:24Z</time>
      </trkpt>
      <trkpt lat="43.62889" lon="7.0365">
        <ele>191.97117614746</ele>
        <time>2012-06-11T10:19:28Z</time>
      </trkpt>
      <trkpt lat="43.62891" lon="7.03654">
        <ele>191.64791870117</ele>
        <time>2012-06-11T10:19:29Z</time>
      </trkpt>
      <trkpt lat="43.62905" lon="7.03668">
        <ele>187.21011352539</ele>
        <time>2012-06-11T10:19:35Z</time>
      </trkpt>
      <trkpt lat="43.62909" lon="7.03676">
        <ele>185.89323425293</ele>
        <time>2012-06-11T10:19:39Z</time>
      </trkpt>
      <trkpt lat="43.62912" lon="7.03677">
        <ele>184.81478881836</ele>
        <time>2012-06-11T10:19:40Z</time>
      </trkpt>
      <trkpt lat="43.62923" lon="7.03691">
        <ele>182.86643981934</ele>
        <time>2012-06-11T10:19:46Z</time>
      </trkpt>
      <trkpt lat="43.62929" lon="7.03703">
        <ele>183.41616821289</ele>
        <time>2012-06-11T10:19:52Z</time>
      </trkpt>
      <trkpt lat="43.62925" lon="7.0372">
        <ele>187.34550476074</ele>
        <time>2012-06-11T10:19:57Z</time>
      </trkpt>
      <trkpt lat="43.62926" lon="7.03727">
        <ele>188.52793884277</ele>
        <time>2012-06-11T10:19:59Z</time>
      </trkpt>
      <trkpt lat="43.62928" lon="7.03732">
        <ele>189.25221252441</ele>
        <time>2012-06-11T10:20:01Z</time>
      </trkpt>
      <trkpt lat="43.62931" lon="7.03735">
        <ele>188.97309875488</ele>
        <time>2012-06-11T10:20:03Z</time>
      </trkpt>
      <trkpt lat="43.62935" lon="7.03741">
        <ele>188.85975646973</ele>
        <time>2012-06-11T10:20:05Z</time>
      </trkpt>
      <trkpt lat="43.62941" lon="7.03753">
        <ele>189.47732543945</ele>
        <time>2012-06-11T10:20:07Z</time>
      </trkpt>
      <trkpt lat="43.62941" lon="7.0376">
        <ele>190.32189941406</ele>
        <time>2012-06-11T10:20:08Z</time>
      </trkpt>
      <trkpt lat="43.62938" lon="7.03787">
        <ele>193.50595092773</ele>
        <time>2012-06-11T10:20:11Z</time>
      </trkpt>
      <trkpt lat="43.62934" lon="7.03799">
        <ele>194.48692321777</ele>
        <time>2012-06-11T10:20:13Z</time>
      </trkpt>
      <trkpt lat="43.62925" lon="7.03807">
        <ele>197.43743896484</ele>
        <time>2012-06-11T10:20:15Z</time>
      </trkpt>
      <trkpt lat="43.62915" lon="7.03827">
        <ele>200</ele>
        <time>2012-06-11T10:20:18Z</time>
      </trkpt>
      <trkpt lat="43.62914" lon="7.03831">
        <ele>200</ele>
        <time>2012-06-11T10:20:19Z</time>
      </trkpt>
      <trkpt lat="43.62915" lon="7.03856">
        <ele>200</ele>
        <time>2012-06-11T10:20:23Z</time>
      </trkpt>
      <trkpt lat="43.62914" lon="7.03862">
        <ele>199.95822143555</ele>
        <time>2012-06-11T10:20:24Z</time>
      </trkpt>
      <trkpt lat="43.62914" lon="7.03878">
        <ele>199.4725189209</ele>
        <time>2012-06-11T10:20:27Z</time>
      </trkpt>
      <trkpt lat="43.62912" lon="7.0389">
        <ele>199.11976623535</ele>
        <time>2012-06-11T10:20:29Z</time>
      </trkpt>
      <trkpt lat="43.62913" lon="7.03896">
        <ele>198.93293762207</ele>
        <time>2012-06-11T10:20:30Z</time>
      </trkpt>
      <trkpt lat="43.62912" lon="7.03908">
        <ele>198.60507202148</ele>
        <time>2012-06-11T10:20:32Z</time>
      </trkpt>
      <trkpt lat="43.62911" lon="7.03914">
        <ele>198.4891204834</ele>
        <time>2012-06-11T10:20:33Z</time>
      </trkpt>
      <trkpt lat="43.62911" lon="7.03927">
        <ele>198.13500976562</ele>
        <time>2012-06-11T10:20:35Z</time>
      </trkpt>
      <trkpt lat="43.62917" lon="7.03941">
        <ele>196.99621582031</ele>
        <time>2012-06-11T10:20:37Z</time>
      </trkpt>
      <trkpt lat="43.62924" lon="7.03953">
        <ele>194.79035949707</ele>
        <time>2012-06-11T10:20:39Z</time>
      </trkpt>
      <trkpt lat="43.62929" lon="7.03962">
        <ele>193.04971313477</ele>
        <time>2012-06-11T10:20:41Z</time>
      </trkpt>
      <trkpt lat="43.62931" lon="7.03965">
        <ele>192.32873535156</ele>
        <time>2012-06-11T10:20:42Z</time>
      </trkpt>
      <trkpt lat="43.62939" lon="7.0398">
        <ele>189.81130981445</ele>
        <time>2012-06-11T10:20:45Z</time>
      </trkpt>
      <trkpt lat="43.62946" lon="7.03992">
        <ele>187.97149658203</ele>
        <time>2012-06-11T10:20:47Z</time>
      </trkpt>
      <trkpt lat="43.62948" lon="7.03995">
        <ele>187.18482971191</ele>
        <time>2012-06-11T10:20:48Z</time>
      </trkpt>
      <trkpt lat="43.62956" lon="7.04009">
        <ele>184.6524810791</ele>
        <time>2012-06-11T10:20:51Z</time>
      </trkpt>
      <trkpt lat="43.62958" lon="7.04016">
        <ele>184.04635620117</ele>
        <time>2012-06-11T10:20:52Z</time>
      </trkpt>
      <trkpt lat="43.62958" lon="7.04026">
        <ele>184.1261138916</ele>
        <time>2012-06-11T10:20:55Z</time>
      </trkpt>
      <trkpt lat="43.62954" lon="7.04037">
        <ele>186.04579162598</ele>
        <time>2012-06-11T10:20:59Z</time>
      </trkpt>
      <trkpt lat="43.62948" lon="7.04047">
        <ele>188.47885131836</ele>
        <time>2012-06-11T10:21:05Z</time>
      </trkpt>
      <trkpt lat="43.62951" lon="7.04048">
        <ele>188.23382568359</ele>
        <time>2012-06-11T10:21:10Z</time>
      </trkpt>
      <trkpt lat="43.62959" lon="7.04057">
        <ele>188.02470397949</ele>
        <time>2012-06-11T10:21:15Z</time>
      </trkpt>
      <trkpt lat="43.62968" lon="7.04069">
        <ele>187.95414733887</ele>
        <time>2012-06-11T10:21:20Z</time>
      </trkpt>
      <trkpt lat="43.62974" lon="7.0407">
        <ele>187.01188659668</ele>
        <time>2012-06-11T10:21:22Z</time>
      </trkpt>
      <trkpt lat="43.6298" lon="7.04071">
        <ele>185.30213928223</ele>
        <time>2012-06-11T10:21:24Z</time>
      </trkpt>
      <trkpt lat="43.62989" lon="7.04069">
        <ele>181.83630371094</ele>
        <time>2012-06-11T10:21:28Z</time>
      </trkpt>
      <trkpt lat="43.63" lon="7.04065">
        <ele>178.05630493164</ele>
        <time>2012-06-11T10:21:32Z</time>
      </trkpt>
      <trkpt lat="43.63015" lon="7.0407">
        <ele>176.2225189209</ele>
        <time>2012-06-11T10:21:37Z</time>
      </trkpt>
      <trkpt lat="43.63017" lon="7.04072">
        <ele>176.02236938477</ele>
        <time>2012-06-11T10:21:38Z</time>
      </trkpt>
      <trkpt lat="43.63029" lon="7.04078">
        <ele>174.9168548584</ele>
        <time>2012-06-11T10:21:42Z</time>
      </trkpt>
      <trkpt lat="43.63038" lon="7.04088">
        <ele>173.0915222168</ele>
        <time>2012-06-11T10:21:46Z</time>
      </trkpt>
      <trkpt lat="43.63038" lon="7.04089">
        <ele>173.38146972656</ele>
        <time>2012-06-11T10:21:47Z</time>
      </trkpt>
      <trkpt lat="43.63042" lon="7.04091">
        <ele>172.52012634277</ele>
        <time>2012-06-11T10:21:49Z</time>
      </trkpt>
      <trkpt lat="43.63041" lon="7.04093">
        <ele>173.4567565918</ele>
        <time>2012-06-11T10:21:51Z</time>
      </trkpt>
      <trkpt lat="43.6304" lon="7.04094">
        <ele>173.89608764648</ele>
        <time>2012-06-11T10:21:53Z</time>
      </trkpt>
      <trkpt lat="43.6304" lon="7.04095">
        <ele>174.29444885254</ele>
        <time>2012-06-11T10:21:54Z</time>
      </trkpt>
      <trkpt lat="43.63039" lon="7.041">
        <ele>175.79824829102</ele>
        <time>2012-06-11T10:21:58Z</time>
      </trkpt>
      <trkpt lat="43.63044" lon="7.04106">
        <ele>175.88442993164</ele>
        <time>2012-06-11T10:22:04Z</time>
      </trkpt>
      <trkpt lat="43.63053" lon="7.04118">
        <ele>176.72729492188</ele>
        <time>2012-06-11T10:22:08Z</time>
      </trkpt>
      <trkpt lat="43.63062" lon="7.04133">
        <ele>177.24559020996</ele>
        <time>2012-06-11T10:22:13Z</time>
      </trkpt>
      <trkpt lat="43.63064" lon="7.04133">
        <ele>176.71003723144</ele>
        <time>2012-06-11T10:22:14Z</time>
      </trkpt>
      <trkpt lat="43.63072" lon="7.0414">
        <ele>175.16069030762</ele>
        <time>2012-06-11T10:22:17Z</time>
      </trkpt>
      <trkpt lat="43.63086" lon="7.04154">
        <ele>172.20762634277</ele>
        <time>2012-06-11T10:22:22Z</time>
      </trkpt>
      <trkpt lat="43.63089" lon="7.04158">
        <ele>171.71983337402</ele>
        <time>2012-06-11T10:22:23Z</time>
      </trkpt>
      <trkpt lat="43.63101" lon="7.04176">
        <ele>171.94802856445</ele>
        <time>2012-06-11T10:22:27Z</time>
      </trkpt>
      <trkpt lat="43.63111" lon="7.04188">
        <ele>171.7600402832</ele>
        <time>2012-06-11T10:22:30Z</time>
      </trkpt>
      <trkpt lat="43.63116" lon="7.04193">
        <ele>171.14547729492</ele>
        <time>2012-06-11T10:22:32Z</time>
      </trkpt>
      <trkpt lat="43.63127" lon="7.04209">
        <ele>169.15528869629</ele>
        <time>2012-06-11T10:22:36Z</time>
      </trkpt>
      <trkpt lat="43.6313" lon="7.04213">
        <ele>168.53387451172</ele>
        <time>2012-06-11T10:22:37Z</time>
      </trkpt>
      <trkpt lat="43.63133" lon="7.04219">
        <ele>168.25234985352</ele>
        <time>2012-06-11T10:22:38Z</time>
      </trkpt>
      <trkpt lat="43.63135" lon="7.04229">
        <ele>169.10174560547</ele>
        <time>2012-06-11T10:22:40Z</time>
      </trkpt>
      <trkpt lat="43.6314" lon="7.0424">
        <ele>168.19975280762</ele>
        <time>2012-06-11T10:22:42Z</time>
      </trkpt>
      <trkpt lat="43.63145" lon="7.04244">
        <ele>166.62390136719</ele>
        <time>2012-06-11T10:22:43Z</time>
      </trkpt>
      <trkpt lat="43.6315" lon="7.04255">
        <ele>165.37599182129</ele>
        <time>2012-06-11T10:22:45Z</time>
      </trkpt>
      <trkpt lat="43.63159" lon="7.04269">
        <ele>163.64221191406</ele>
        <time>2012-06-11T10:22:48Z</time>
      </trkpt>
      <trkpt lat="43.63165" lon="7.04284">
        <ele>163.5758972168</ele>
        <time>2012-06-11T10:22:50Z</time>
      </trkpt>
      <trkpt lat="43.63168" lon="7.04296">
        <ele>164.57304382324</ele>
        <time>2012-06-11T10:22:52Z</time>
      </trkpt>
      <trkpt lat="43.63169" lon="7.04301">
        <ele>165.52265930176</ele>
        <time>2012-06-11T10:22:53Z</time>
      </trkpt>
      <trkpt lat="43.63169" lon="7.04304">
        <ele>165.91807556152</ele>
        <time>2012-06-11T10:22:54Z</time>
      </trkpt>
      <trkpt lat="43.63169" lon="7.04306">
        <ele>166.33264160156</ele>
        <time>2012-06-11T10:22:57Z</time>
      </trkpt>
      <trkpt lat="43.63168" lon="7.04306">
        <ele>166.62294006348</ele>
        <time>2012-06-11T10:23:18Z</time>
      </trkpt>
      <trkpt lat="43.63173" lon="7.04311">
        <ele>165.75712585449</ele>
        <time>2012-06-11T10:25:00Z</time>
      </trkpt>
      <trkpt lat="43.63178" lon="7.04314">
        <ele>164.6383972168</ele>
        <time>2012-06-11T10:25:02Z</time>
      </trkpt>
      <trkpt lat="43.63184" lon="7.04319">
        <ele>163.31364440918</ele>
        <time>2012-06-11T10:25:04Z</time>
      </trkpt>
      <trkpt lat="43.63186" lon="7.04327">
        <ele>162.99479675293</ele>
        <time>2012-06-11T10:25:06Z</time>
      </trkpt>
      <trkpt lat="43.63185" lon="7.04326">
        <ele>163.2322845459</ele>
        <time>2012-06-11T10:25:08Z</time>
      </trkpt>
      <trkpt lat="43.63185" lon="7.04327">
        <ele>163.26107788086</ele>
        <time>2012-06-11T10:25:09Z</time>
      </trkpt>
      <trkpt lat="43.63184" lon="7.04332">
        <ele>163.71925354004</ele>
        <time>2012-06-11T10:25:14Z</time>
      </trkpt>
      <trkpt lat="43.63184" lon="7.04335">
        <ele>164.07675170898</ele>
        <time>2012-06-11T10:25:16Z</time>
      </trkpt>
      <trkpt lat="43.63187" lon="7.04342">
        <ele>163.79528808594</ele>
        <time>2012-06-11T10:25:18Z</time>
      </trkpt>
      <trkpt lat="43.63194" lon="7.04369">
        <ele>164.37622070312</ele>
        <time>2012-06-11T10:25:23Z</time>
      </trkpt>
      <trkpt lat="43.63205" lon="7.04382">
        <ele>161.78147888184</ele>
        <time>2012-06-11T10:25:27Z</time>
      </trkpt>
      <trkpt lat="43.6322" lon="7.04397">
        <ele>157.9231262207</ele>
        <time>2012-06-11T10:25:32Z</time>
      </trkpt>
      <trkpt lat="43.63219" lon="7.04409">
        <ele>159.99903869629</ele>
        <time>2012-06-11T10:25:35Z</time>
      </trkpt>
      <trkpt lat="43.63206" lon="7.04416">
        <ele>165.67930603027</ele>
        <time>2012-06-11T10:25:39Z</time>
      </trkpt>
      <trkpt lat="43.63184" lon="7.04434">
        <ele>174.93948364258</ele>
        <time>2012-06-11T10:25:45Z</time>
      </trkpt>
      <trkpt lat="43.63171" lon="7.04437">
        <ele>178.66549682617</ele>
        <time>2012-06-11T10:25:49Z</time>
      </trkpt>
      <trkpt lat="43.63157" lon="7.04443">
        <ele>181.09698486328</ele>
        <time>2012-06-11T10:25:53Z</time>
      </trkpt>
      <trkpt lat="43.63145" lon="7.04455">
        <ele>182.41777038574</ele>
        <time>2012-06-11T10:25:57Z</time>
      </trkpt>
      <trkpt lat="43.63132" lon="7.04461">
        <ele>185.52627563477</ele>
        <time>2012-06-11T10:26:02Z</time>
      </trkpt>
      <trkpt lat="43.63126" lon="7.04467">
        <ele>187.49803161621</ele>
        <time>2012-06-11T10:26:06Z</time>
      </trkpt>
      <trkpt lat="43.63116" lon="7.04474">
        <ele>190.42218017578</ele>
        <time>2012-06-11T10:26:10Z</time>
      </trkpt>
      <trkpt lat="43.63098" lon="7.0448">
        <ele>191.61219787598</ele>
        <time>2012-06-11T10:26:14Z</time>
      </trkpt>
      <trkpt lat="43.63096" lon="7.04485">
        <ele>191.14006042481</ele>
        <time>2012-06-11T10:26:15Z</time>
      </trkpt>
      <trkpt lat="43.63098" lon="7.04489">
        <ele>190.6604309082</ele>
        <time>2012-06-11T10:26:17Z</time>
      </trkpt>
      <trkpt lat="43.6311" lon="7.04499">
        <ele>190.01089477539</ele>
        <time>2012-06-11T10:26:21Z</time>
      </trkpt>
      <trkpt lat="43.6312" lon="7.04513">
        <ele>186.56814575195</ele>
        <time>2012-06-11T10:26:25Z</time>
      </trkpt>
      <trkpt lat="43.63128" lon="7.0452">
        <ele>184.32936096191</ele>
        <time>2012-06-11T10:26:27Z</time>
      </trkpt>
      <trkpt lat="43.63133" lon="7.04527">
        <ele>183.04342651367</ele>
        <time>2012-06-11T10:26:29Z</time>
      </trkpt>
      <trkpt lat="43.63148" lon="7.04541">
        <ele>181.00701904297</ele>
        <time>2012-06-11T10:26:34Z</time>
      </trkpt>
      <trkpt lat="43.63161" lon="7.04546">
        <ele>180.2864074707</ele>
        <time>2012-06-11T10:26:38Z</time>
      </trkpt>
      <trkpt lat="43.6317" lon="7.04554">
        <ele>180</ele>
        <time>2012-06-11T10:26:42Z</time>
      </trkpt>
      <trkpt lat="43.63186" lon="7.0456">
        <ele>179.89283752441</ele>
        <time>2012-06-11T10:26:47Z</time>
      </trkpt>
      <trkpt lat="43.632" lon="7.04565">
        <ele>177.42300415039</ele>
        <time>2012-06-11T10:26:52Z</time>
      </trkpt>
      <trkpt lat="43.63203" lon="7.04565">
        <ele>176.11347961426</ele>
        <time>2012-06-11T10:26:53Z</time>
      </trkpt>
      <trkpt lat="43.63215" lon="7.04563">
        <ele>170.76206970215</ele>
        <time>2012-06-11T10:26:56Z</time>
      </trkpt>
      <trkpt lat="43.6323" lon="7.04567">
        <ele>165.59352111816</ele>
        <time>2012-06-11T10:27:00Z</time>
      </trkpt>
      <trkpt lat="43.63251" lon="7.04572">
        <ele>159.30993652344</ele>
        <time>2012-06-11T10:27:05Z</time>
      </trkpt>
      <trkpt lat="43.63255" lon="7.04572">
        <ele>157.55085754394</ele>
        <time>2012-06-11T10:27:07Z</time>
      </trkpt>
      <trkpt lat="43.63257" lon="7.04572">
        <ele>156.66400146484</ele>
        <time>2012-06-11T10:27:08Z</time>
      </trkpt>
      <trkpt lat="43.63259" lon="7.04571">
        <ele>155.94575500488</ele>
        <time>2012-06-11T10:27:10Z</time>
      </trkpt>
      <trkpt lat="43.63264" lon="7.04572">
        <ele>153.66485595703</ele>
        <time>2012-06-11T10:27:12Z</time>
      </trkpt>
      <trkpt lat="43.63274" lon="7.04583">
        <ele>149.78285217285</ele>
        <time>2012-06-11T10:27:15Z</time>
      </trkpt>
      <trkpt lat="43.63277" lon="7.04587">
        <ele>148.19148254394</ele>
        <time>2012-06-11T10:27:16Z</time>
      </trkpt>
      <trkpt lat="43.63279" lon="7.04592">
        <ele>146.88977050781</ele>
        <time>2012-06-11T10:27:17Z</time>
      </trkpt>
      <trkpt lat="43.6328" lon="7.04599">
        <ele>145.68046569824</ele>
        <time>2012-06-11T10:27:19Z</time>
      </trkpt>
      <trkpt lat="43.63279" lon="7.04605">
        <ele>146.24490356445</ele>
        <time>2012-06-11T10:27:23Z</time>
      </trkpt>
      <trkpt lat="43.6328" lon="7.04605">
        <ele>145.75399780273</ele>
        <time>2012-06-11T10:27:28Z</time>
      </trkpt>
      <trkpt lat="43.63282" lon="7.04605">
        <ele>144.32934570312</ele>
        <time>2012-06-11T10:28:20Z</time>
      </trkpt>
      <trkpt lat="43.63282" lon="7.04601">
        <ele>144.66104125977</ele>
        <time>2012-06-11T10:28:27Z</time>
      </trkpt>
      <trkpt lat="43.63286" lon="7.04597">
        <ele>142.29432678223</ele>
        <time>2012-06-11T10:28:34Z</time>
      </trkpt>
      <trkpt lat="43.63287" lon="7.04595">
        <ele>141.56980895996</ele>
        <time>2012-06-11T10:28:35Z</time>
      </trkpt>
      <trkpt lat="43.63296" lon="7.04585">
        <ele>135.4718170166</ele>
        <time>2012-06-11T10:28:39Z</time>
      </trkpt>
      <trkpt lat="43.63304" lon="7.04575">
        <ele>129.65545654297</ele>
        <time>2012-06-11T10:28:45Z</time>
      </trkpt>
      <trkpt lat="43.63309" lon="7.04572">
        <ele>127.434715271</ele>
        <time>2012-06-11T10:28:52Z</time>
      </trkpt>
      <trkpt lat="43.63313" lon="7.04565">
        <ele>125.97419738769</ele>
        <time>2012-06-11T10:28:55Z</time>
      </trkpt>
      <trkpt lat="43.6332" lon="7.04556">
        <ele>123.89120483398</ele>
        <time>2012-06-11T10:28:57Z</time>
      </trkpt>
      <trkpt lat="43.63324" lon="7.04547">
        <ele>122.78300476074</ele>
        <time>2012-06-11T10:28:59Z</time>
      </trkpt>
      <trkpt lat="43.63326" lon="7.04518">
        <ele>121.424949646</ele>
        <time>2012-06-11T10:29:03Z</time>
      </trkpt>
      <trkpt lat="43.6333" lon="7.04502">
        <ele>120.48933410644</ele>
        <time>2012-06-11T10:29:05Z</time>
      </trkpt>
      <trkpt lat="43.63334" lon="7.04485">
        <ele>119.95971679688</ele>
        <time>2012-06-11T10:29:07Z</time>
      </trkpt>
      <trkpt lat="43.63336" lon="7.04461">
        <ele>119.44012451172</ele>
        <time>2012-06-11T10:29:10Z</time>
      </trkpt>
      <trkpt lat="43.63337" lon="7.04449">
        <ele>118.99919891357</ele>
        <time>2012-06-11T10:29:12Z</time>
      </trkpt>
      <trkpt lat="43.63337" lon="7.0445">
        <ele>119.04808044434</ele>
        <time>2012-06-11T10:29:15Z</time>
      </trkpt>
      <trkpt lat="43.63342" lon="7.04449">
        <ele>118.79319763184</ele>
        <time>2012-06-11T10:29:36Z</time>
      </trkpt>
      <trkpt lat="43.63343" lon="7.04438">
        <ele>118.71499633789</ele>
        <time>2012-06-11T10:29:39Z</time>
      </trkpt>
      <trkpt lat="43.63346" lon="7.04434">
        <ele>118.72769165039</ele>
        <time>2012-06-11T10:29:42Z</time>
      </trkpt>
      <trkpt lat="43.63348" lon="7.04436">
        <ele>118.64070892334</ele>
        <time>2012-06-11T10:29:43Z</time>
      </trkpt>
      <trkpt lat="43.63352" lon="7.04448">
        <ele>118.36100006103</ele>
        <time>2012-06-11T10:29:47Z</time>
      </trkpt>
      <trkpt lat="43.63355" lon="7.04452">
        <ele>118.28708648682</ele>
        <time>2012-06-11T10:29:52Z</time>
      </trkpt>
      <trkpt lat="43.63351" lon="7.04457">
        <ele>118.50845336914</ele>
        <time>2012-06-11T10:30:17Z</time>
      </trkpt>
      <trkpt lat="43.63352" lon="7.04465">
        <ele>118.5791015625</ele>
        <time>2012-06-11T10:30:19Z</time>
      </trkpt>
      <trkpt lat="43.63353" lon="7.04497">
        <ele>118.61389160156</ele>
        <time>2012-06-11T10:30:25Z</time>
      </trkpt>
      <trkpt lat="43.63357" lon="7.04537">
        <ele>117.47467803955</ele>
        <time>2012-06-11T10:30:31Z</time>
      </trkpt>
      <trkpt lat="43.63355" lon="7.04555">
        <ele>117.84039306641</ele>
        <time>2012-06-11T10:30:33Z</time>
      </trkpt>
      <trkpt lat="43.63352" lon="7.04575">
        <ele>118.50845336914</ele>
        <time>2012-06-11T10:30:35Z</time>
      </trkpt>
      <trkpt lat="43.63348" lon="7.04584">
        <ele>119.43698120117</ele>
        <time>2012-06-11T10:30:36Z</time>
      </trkpt>
      <trkpt lat="43.63338" lon="7.046">
        <ele>121.56996154785</ele>
        <time>2012-06-11T10:30:38Z</time>
      </trkpt>
      <trkpt lat="43.63328" lon="7.04615">
        <ele>124.43141174316</ele>
        <time>2012-06-11T10:30:40Z</time>
      </trkpt>
      <trkpt lat="43.63314" lon="7.04635">
        <ele>128.72467041016</ele>
        <time>2012-06-11T10:30:43Z</time>
      </trkpt>
      <trkpt lat="43.63302" lon="7.04661">
        <ele>134.22895812988</ele>
        <time>2012-06-11T10:30:46Z</time>
      </trkpt>
      <trkpt lat="43.63295" lon="7.0468">
        <ele>138.37211608887</ele>
        <time>2012-06-11T10:30:48Z</time>
      </trkpt>
      <trkpt lat="43.63288" lon="7.04712">
        <ele>140.51527404785</ele>
        <time>2012-06-11T10:30:51Z</time>
      </trkpt>
      <trkpt lat="43.63287" lon="7.04724">
        <ele>140.58786010742</ele>
        <time>2012-06-11T10:30:52Z</time>
      </trkpt>
      <trkpt lat="43.63281" lon="7.04779">
        <ele>139.33880615234</ele>
        <time>2012-06-11T10:30:57Z</time>
      </trkpt>
      <trkpt lat="43.63282" lon="7.04798">
        <ele>138.17767333984</ele>
        <time>2012-06-11T10:30:59Z</time>
      </trkpt>
      <trkpt lat="43.63289" lon="7.04818">
        <ele>133.85690307617</ele>
        <time>2012-06-11T10:31:01Z</time>
      </trkpt>
      <trkpt lat="43.63304" lon="7.0485">
        <ele>122.32398223877</ele>
        <time>2012-06-11T10:31:04Z</time>
      </trkpt>
      <trkpt lat="43.63307" lon="7.04858">
        <ele>119.95024108887</ele>
        <time>2012-06-11T10:31:05Z</time>
      </trkpt>
      <trkpt lat="43.63316" lon="7.04882">
        <ele>117.28137969971</ele>
        <time>2012-06-11T10:31:09Z</time>
      </trkpt>
      <trkpt lat="43.63318" lon="7.04887">
        <ele>116.39572143555</ele>
        <time>2012-06-11T10:31:10Z</time>
      </trkpt>
      <trkpt lat="43.63332" lon="7.04899">
        <ele>112.38818359375</ele>
        <time>2012-06-11T10:31:14Z</time>
      </trkpt>
      <trkpt lat="43.63342" lon="7.04904">
        <ele>108.91467285156</ele>
        <time>2012-06-11T10:31:18Z</time>
      </trkpt>
      <trkpt lat="43.63352" lon="7.04916">
        <ele>105.20678710938</ele>
        <time>2012-06-11T10:31:23Z</time>
      </trkpt>
      <trkpt lat="43.63357" lon="7.04931">
        <ele>103.92623901367</ele>
        <time>2012-06-11T10:31:28Z</time>
      </trkpt>
      <trkpt lat="43.63362" lon="7.04939">
        <ele>102.64427947998</ele>
        <time>2012-06-11T10:31:34Z</time>
      </trkpt>
      <trkpt lat="43.63371" lon="7.04947">
        <ele>100.31887817383</ele>
        <time>2012-06-11T10:31:39Z</time>
      </trkpt>
      <trkpt lat="43.63372" lon="7.04948">
        <ele>99.995643615723</ele>
        <time>2012-06-11T10:31:40Z</time>
      </trkpt>
      <trkpt lat="43.63373" lon="7.04948">
        <ele>99.538993835449</ele>
        <time>2012-06-11T10:31:41Z</time>
      </trkpt>
      <trkpt lat="43.63375" lon="7.04945">
        <ele>98.973472595215</ele>
        <time>2012-06-11T10:31:44Z</time>
      </trkpt>
      <trkpt lat="43.63374" lon="7.04942">
        <ele>99.188751220703</ele>
        <time>2012-06-11T10:31:50Z</time>
      </trkpt>
      <trkpt lat="43.63374" lon="7.04935">
        <ele>99.176887512207</ele>
        <time>2012-06-11T10:32:13Z</time>
      </trkpt>
      <trkpt lat="43.63377" lon="7.04915">
        <ele>98.688941955566</ele>
        <time>2012-06-11T10:32:18Z</time>
      </trkpt>
      <trkpt lat="43.63375" lon="7.04886">
        <ele>99.729614257812</ele>
        <time>2012-06-11T10:32:23Z</time>
      </trkpt>
      <trkpt lat="43.63372" lon="7.04866">
        <ele>101.26686859131</ele>
        <time>2012-06-11T10:32:27Z</time>
      </trkpt>
      <trkpt lat="43.63371" lon="7.04864">
        <ele>101.64400482178</ele>
        <time>2012-06-11T10:32:29Z</time>
      </trkpt>
      <trkpt lat="43.63372" lon="7.04863">
        <ele>101.59354400635</ele>
        <time>2012-06-11T10:32:31Z</time>
      </trkpt>
      <trkpt lat="43.63371" lon="7.04859">
        <ele>102.03430175781</ele>
        <time>2012-06-11T10:32:37Z</time>
      </trkpt>
      <trkpt lat="43.6337" lon="7.04856">
        <ele>102.57900238037</ele>
        <time>2012-06-11T10:32:43Z</time>
      </trkpt>
      <trkpt lat="43.63367" lon="7.0485">
        <ele>103.8638381958</ele>
        <time>2012-06-11T10:32:48Z</time>
      </trkpt>
      <trkpt lat="43.63366" lon="7.0485">
        <ele>104.10706329346</ele>
        <time>2012-06-11T10:32:49Z</time>
      </trkpt>
      <trkpt lat="43.63365" lon="7.04846">
        <ele>104.72542572022</ele>
        <time>2012-06-11T10:32:55Z</time>
      </trkpt>
      <trkpt lat="43.63369" lon="7.04842">
        <ele>104.24105834961</ele>
        <time>2012-06-11T10:33:01Z</time>
      </trkpt>
      <trkpt lat="43.63364" lon="7.04847">
        <ele>104.96450042725</ele>
        <time>2012-06-11T10:33:08Z</time>
      </trkpt>
      <trkpt lat="43.63366" lon="7.04847">
        <ele>104.46318817139</ele>
        <time>2012-06-11T10:33:09Z</time>
      </trkpt>
      <trkpt lat="43.63367" lon="7.04851">
        <ele>103.83982086182</ele>
        <time>2012-06-11T10:33:13Z</time>
      </trkpt>
      <trkpt lat="43.63369" lon="7.04849">
        <ele>103.41729736328</ele>
        <time>2012-06-11T10:33:19Z</time>
      </trkpt>
      <trkpt lat="43.63367" lon="7.0485">
        <ele>103.94551849365</ele>
        <time>2012-06-11T10:33:21Z</time>
      </trkpt>
      <trkpt lat="43.6337" lon="7.04849">
        <ele>103.25407409668</ele>
        <time>2012-06-11T10:33:27Z</time>
      </trkpt>
      <trkpt lat="43.63363" lon="7.0484">
        <ele>105.89141082764</ele>
        <time>2012-06-11T10:33:46Z</time>
      </trkpt>
      <trkpt lat="43.63361" lon="7.04842">
        <ele>106.07668304443</ele>
        <time>2012-06-11T10:33:49Z</time>
      </trkpt>
      <trkpt lat="43.63361" lon="7.04839">
        <ele>106.38567352295</ele>
        <time>2012-06-11T10:33:54Z</time>
      </trkpt>
      <trkpt lat="43.63357" lon="7.04826">
        <ele>109.3742980957</ele>
        <time>2012-06-11T10:33:59Z</time>
      </trkpt>
      <trkpt lat="43.63355" lon="7.04811">
        <ele>111.50461578369</ele>
        <time>2012-06-11T10:34:04Z</time>
      </trkpt>
      <trkpt lat="43.63354" lon="7.04785">
        <ele>113.63671875</ele>
        <time>2012-06-11T10:34:09Z</time>
      </trkpt>
      <trkpt lat="43.63358" lon="7.04763">
        <ele>114.73650360107</ele>
        <time>2012-06-11T10:34:14Z</time>
      </trkpt>
      <trkpt lat="43.63363" lon="7.04733">
        <ele>115.10438537598</ele>
        <time>2012-06-11T10:34:19Z</time>
      </trkpt>
      <trkpt lat="43.63375" lon="7.04708">
        <ele>111.35831451416</ele>
        <time>2012-06-11T10:34:24Z</time>
      </trkpt>
      <trkpt lat="43.6338" lon="7.04685">
        <ele>109.97357940674</ele>
        <time>2012-06-11T10:34:29Z</time>
      </trkpt>
      <trkpt lat="43.63383" lon="7.04668">
        <ele>109.63673400879</ele>
        <time>2012-06-11T10:34:33Z</time>
      </trkpt>
      <trkpt lat="43.63388" lon="7.04653">
        <ele>108.59644317627</ele>
        <time>2012-06-11T10:34:37Z</time>
      </trkpt>
      <trkpt lat="43.63393" lon="7.0465">
        <ele>107.42491149902</ele>
        <time>2012-06-11T10:34:38Z</time>
      </trkpt>
      <trkpt lat="43.63407" lon="7.0464">
        <ele>103.19380950928</ele>
        <time>2012-06-11T10:34:42Z</time>
      </trkpt>
      <trkpt lat="43.63419" lon="7.04627">
        <ele>100</ele>
        <time>2012-06-11T10:34:46Z</time>
      </trkpt>
      <trkpt lat="43.63428" lon="7.04613">
        <ele>100</ele>
        <time>2012-06-11T10:34:50Z</time>
      </trkpt>
      <trkpt lat="43.63432" lon="7.04608">
        <ele>100.05568695068</ele>
        <time>2012-06-11T10:34:54Z</time>
      </trkpt>
      <trkpt lat="43.63433" lon="7.04614">
        <ele>100</ele>
        <time>2012-06-11T10:34:58Z</time>
      </trkpt>
      <trkpt lat="43.63433" lon="7.04615">
        <ele>100</ele>
        <time>2012-06-11T10:34:59Z</time>
      </trkpt>
      <trkpt lat="43.63434" lon="7.04614">
        <ele>100</ele>
        <time>2012-06-11T10:35:04Z</time>
      </trkpt>
      <trkpt lat="43.63434" lon="7.04625">
        <ele>100</ele>
        <time>2012-06-11T10:36:00Z</time>
      </trkpt>
      <trkpt lat="43.63435" lon="7.04626">
        <ele>100</ele>
        <time>2012-06-11T10:36:01Z</time>
      </trkpt>
      <trkpt lat="43.63442" lon="7.04621">
        <ele>100</ele>
        <time>2012-06-11T10:36:04Z</time>
      </trkpt>
      <trkpt lat="43.63446" lon="7.0462">
        <ele>100</ele>
        <time>2012-06-11T10:36:06Z</time>
      </trkpt>
      <trkpt lat="43.63454" lon="7.04616">
        <ele>100</ele>
        <time>2012-06-11T10:36:08Z</time>
      </trkpt>
      <trkpt lat="43.63466" lon="7.04621">
        <ele>100</ele>
        <time>2012-06-11T10:36:12Z</time>
      </trkpt>
      <trkpt lat="43.63467" lon="7.04625">
        <ele>100</ele>
        <time>2012-06-11T10:36:14Z</time>
      </trkpt>
      <trkpt lat="43.63467" lon="7.04631">
        <ele>100</ele>
        <time>2012-06-11T10:36:16Z</time>
      </trkpt>
      <trkpt lat="43.63466" lon="7.04649">
        <ele>100</ele>
        <time>2012-06-11T10:36:21Z</time>
      </trkpt>
      <trkpt lat="43.63462" lon="7.04665">
        <ele>100</ele>
        <time>2012-06-11T10:36:24Z</time>
      </trkpt>
      <trkpt lat="43.63459" lon="7.04674">
        <ele>99.87801361084</ele>
        <time>2012-06-11T10:36:26Z</time>
      </trkpt>
      <trkpt lat="43.6346" lon="7.04692">
        <ele>99.590942382812</ele>
        <time>2012-06-11T10:36:31Z</time>
      </trkpt>
      <trkpt lat="43.63457" lon="7.04715">
        <ele>99.442138671875</ele>
        <time>2012-06-11T10:36:36Z</time>
      </trkpt>
      <trkpt lat="43.63462" lon="7.04732">
        <ele>99.620666503906</ele>
        <time>2012-06-11T10:36:40Z</time>
      </trkpt>
      <trkpt lat="43.63462" lon="7.04736">
        <ele>99.620666503906</ele>
        <time>2012-06-11T10:36:41Z</time>
      </trkpt>
      <trkpt lat="43.63462" lon="7.04745">
        <ele>99.634399414062</ele>
        <time>2012-06-11T10:36:44Z</time>
      </trkpt>
      <trkpt lat="43.63466" lon="7.04763">
        <ele>99.785461425781</ele>
        <time>2012-06-11T10:36:49Z</time>
      </trkpt>
      <trkpt lat="43.63467" lon="7.04768">
        <ele>99.799194335938</ele>
        <time>2012-06-11T10:36:50Z</time>
      </trkpt>
      <trkpt lat="43.63467" lon="7.04789">
        <ele>99.715179443359</ele>
        <time>2012-06-11T10:36:54Z</time>
      </trkpt>
      <trkpt lat="43.63465" lon="7.04808">
        <ele>99.461059570312</ele>
        <time>2012-06-11T10:36:58Z</time>
      </trkpt>
      <trkpt lat="43.63464" lon="7.04833">
        <ele>99.406127929688</ele>
        <time>2012-06-11T10:37:02Z</time>
      </trkpt>
      <trkpt lat="43.6346" lon="7.0485">
        <ele>99.131469726562</ele>
        <time>2012-06-11T10:37:06Z</time>
      </trkpt>
      <trkpt lat="43.63457" lon="7.04877">
        <ele>98.911743164062</ele>
        <time>2012-06-11T10:37:10Z</time>
      </trkpt>
      <trkpt lat="43.63457" lon="7.04883">
        <ele>98.911743164062</ele>
        <time>2012-06-11T10:37:11Z</time>
      </trkpt>
      <trkpt lat="43.63453" lon="7.04909">
        <ele>97.855049133301</ele>
        <time>2012-06-11T10:37:15Z</time>
      </trkpt>
      <trkpt lat="43.63454" lon="7.04912">
        <ele>97.817283630371</ele>
        <time>2012-06-11T10:37:16Z</time>
      </trkpt>
      <trkpt lat="43.63459" lon="7.04914">
        <ele>98.165756225586</ele>
        <time>2012-06-11T10:37:18Z</time>
      </trkpt>
      <trkpt lat="43.63479" lon="7.04915">
        <ele>99.294815063477</ele>
        <time>2012-06-11T10:37:25Z</time>
      </trkpt>
      <trkpt lat="43.63492" lon="7.04912">
        <ele>99.754577636719</ele>
        <time>2012-06-11T10:37:31Z</time>
      </trkpt>
      <trkpt lat="43.63498" lon="7.04906">
        <ele>99.962783813477</ele>
        <time>2012-06-11T10:37:35Z</time>
      </trkpt>
      <trkpt lat="43.63496" lon="7.04904">
        <ele>99.921104431152</ele>
        <time>2012-06-11T10:37:36Z</time>
      </trkpt>
      <trkpt lat="43.63494" lon="7.0489">
        <ele>99.990089416504</ele>
        <time>2012-06-11T10:37:41Z</time>
      </trkpt>
      <trkpt lat="43.63497" lon="7.0489">
        <ele>99.99471282959</ele>
        <time>2012-06-11T10:37:44Z</time>
      </trkpt>
      <trkpt lat="43.63496" lon="7.0489">
        <ele>99.994087219238</ele>
        <time>2012-06-11T10:37:45Z</time>
      </trkpt>
      <trkpt lat="43.63496" lon="7.04891">
        <ele>99.988540649414</ele>
        <time>2012-06-11T10:37:48Z</time>
      </trkpt>
      <trkpt lat="43.63499" lon="7.04893">
        <ele>99.995079040527</ele>
        <time>2012-06-11T10:37:54Z</time>
      </trkpt>
      <trkpt lat="43.63504" lon="7.04892">
        <ele>100.38043212891</ele>
        <time>2012-06-11T10:37:57Z</time>
      </trkpt>
      <trkpt lat="43.63506" lon="7.04892">
        <ele>100.577003479</ele>
        <time>2012-06-11T10:37:59Z</time>
      </trkpt>
      <trkpt lat="43.63508" lon="7.04892">
        <ele>100.81962585449</ele>
        <time>2012-06-11T10:38:04Z</time>
      </trkpt>
      <trkpt lat="43.63511" lon="7.0489">
        <ele>101.16548156738</ele>
        <time>2012-06-11T10:38:11Z</time>
      </trkpt>
      <trkpt lat="43.63514" lon="7.04888">
        <ele>101.56816864014</ele>
        <time>2012-06-11T10:38:18Z</time>
      </trkpt>
      <trkpt lat="43.63516" lon="7.04887">
        <ele>101.75280761719</ele>
        <time>2012-06-11T10:38:27Z</time>
      </trkpt>
      <trkpt lat="43.63509" lon="7.04891">
        <ele>100.90254974365</ele>
        <time>2012-06-11T10:38:35Z</time>
      </trkpt>
      <trkpt lat="43.63507" lon="7.04891">
        <ele>100.70334625244</ele>
        <time>2012-06-11T10:38:36Z</time>
      </trkpt>
      <trkpt lat="43.63498" lon="7.04896">
        <ele>99.980949401855</ele>
        <time>2012-06-11T10:38:39Z</time>
      </trkpt>
      <trkpt lat="43.63496" lon="7.04895">
        <ele>99.972053527832</ele>
        <time>2012-06-11T10:38:40Z</time>
      </trkpt>
      <trkpt lat="43.63492" lon="7.04892">
        <ele>99.963317871094</ele>
        <time>2012-06-11T10:38:42Z</time>
      </trkpt>
      <trkpt lat="43.63489" lon="7.04887">
        <ele>100</ele>
        <time>2012-06-11T10:38:46Z</time>
      </trkpt>
      <trkpt lat="43.6349" lon="7.04885">
        <ele>100</ele>
        <time>2012-06-11T10:38:47Z</time>
      </trkpt>
      <trkpt lat="43.63491" lon="7.0488">
        <ele>100</ele>
        <time>2012-06-11T10:38:52Z</time>
      </trkpt>
      <trkpt lat="43.63491" lon="7.04878">
        <ele>100</ele>
        <time>2012-06-11T10:38:54Z</time>
      </trkpt>
      <trkpt lat="43.63491" lon="7.04872">
        <ele>100</ele>
        <time>2012-06-11T10:38:58Z</time>
      </trkpt>
      <trkpt lat="43.63493" lon="7.04865">
        <ele>100</ele>
        <time>2012-06-11T10:39:02Z</time>
      </trkpt>
      <trkpt lat="43.63493" lon="7.04863">
        <ele>100</ele>
        <time>2012-06-11T10:39:04Z</time>
      </trkpt>
      <trkpt lat="43.63494" lon="7.04862">
        <ele>100</ele>
        <time>2012-06-11T10:39:05Z</time>
      </trkpt>
      <trkpt lat="43.63494" lon="7.0486">
        <ele>100</ele>
        <time>2012-06-11T10:39:07Z</time>
      </trkpt>
      <trkpt lat="43.63495" lon="7.04856">
        <ele>100</ele>
        <time>2012-06-11T10:39:12Z</time>
      </trkpt>
      <trkpt lat="43.63497" lon="7.04846">
        <ele>100</ele>
        <time>2012-06-11T10:39:17Z</time>
      </trkpt>
      <trkpt lat="43.63503" lon="7.04834">
        <ele>100.4489440918</ele>
        <time>2012-06-11T10:39:22Z</time>
      </trkpt>
      <trkpt lat="43.63507" lon="7.04828">
        <ele>101.4393081665</ele>
        <time>2012-06-11T10:39:26Z</time>
      </trkpt>
      <trkpt lat="43.63513" lon="7.0482">
        <ele>102.75430297852</ele>
        <time>2012-06-11T10:39:31Z</time>
      </trkpt>
      <trkpt lat="43.63514" lon="7.04819">
        <ele>103.0212020874</ele>
        <time>2012-06-11T10:39:33Z</time>
      </trkpt>
      <trkpt lat="43.63514" lon="7.04817">
        <ele>103.01568603516</ele>
        <time>2012-06-11T10:39:36Z</time>
      </trkpt>
      <trkpt lat="43.63515" lon="7.04812">
        <ele>103.46099853516</ele>
        <time>2012-06-11T10:39:41Z</time>
      </trkpt>
      <trkpt lat="43.63516" lon="7.04803">
        <ele>103.99517822266</ele>
        <time>2012-06-11T10:39:48Z</time>
      </trkpt>
      <trkpt lat="43.63517" lon="7.04801">
        <ele>104.18743896484</ele>
        <time>2012-06-11T10:39:49Z</time>
      </trkpt>
      <trkpt lat="43.63521" lon="7.04791">
        <ele>105.34100341797</ele>
        <time>2012-06-11T10:39:53Z</time>
      </trkpt>
      <trkpt lat="43.63526" lon="7.04786">
        <ele>106.49456787109</ele>
        <time>2012-06-11T10:39:57Z</time>
      </trkpt>
      <trkpt lat="43.63527" lon="7.04785">
        <ele>106.78295898438</ele>
        <time>2012-06-11T10:39:58Z</time>
      </trkpt>
      <trkpt lat="43.63528" lon="7.04783">
        <ele>106.97521972656</ele>
        <time>2012-06-11T10:39:59Z</time>
      </trkpt>
      <trkpt lat="43.63531" lon="7.04775">
        <ele>107.61800384522</ele>
        <time>2012-06-11T10:40:03Z</time>
      </trkpt>
      <trkpt lat="43.63535" lon="7.04765">
        <ele>108.53295898438</ele>
        <time>2012-06-11T10:40:08Z</time>
      </trkpt>
      <trkpt lat="43.63537" lon="7.04764">
        <ele>108.80933380127</ele>
        <time>2012-06-11T10:40:09Z</time>
      </trkpt>
      <trkpt lat="43.63548" lon="7.04756">
        <ele>110.61177825928</ele>
        <time>2012-06-11T10:40:14Z</time>
      </trkpt>
      <trkpt lat="43.63549" lon="7.04754">
        <ele>110.87442016602</ele>
        <time>2012-06-11T10:40:15Z</time>
      </trkpt>
      <trkpt lat="43.63556" lon="7.04746">
        <ele>112.13098144531</ele>
        <time>2012-06-11T10:40:19Z</time>
      </trkpt>
      <trkpt lat="43.6356" lon="7.04744">
        <ele>112.67031097412</ele>
        <time>2012-06-11T10:40:22Z</time>
      </trkpt>
      <trkpt lat="43.63564" lon="7.04743">
        <ele>113.07209014893</ele>
        <time>2012-06-11T10:40:24Z</time>
      </trkpt>
      <trkpt lat="43.63569" lon="7.0474">
        <ele>113.63422393799</ele>
        <time>2012-06-11T10:40:28Z</time>
      </trkpt>
      <trkpt lat="43.6357" lon="7.04738">
        <ele>113.77443695068</ele>
        <time>2012-06-11T10:40:29Z</time>
      </trkpt>
      <trkpt lat="43.63572" lon="7.04734">
        <ele>114.00290679932</ele>
        <time>2012-06-11T10:40:34Z</time>
      </trkpt>
      <trkpt lat="43.63568" lon="7.04735">
        <ele>113.68528747559</ele>
        <time>2012-06-11T10:40:49Z</time>
      </trkpt>
      <trkpt lat="43.6357" lon="7.04734">
        <ele>113.7993850708</ele>
        <time>2012-06-11T10:40:53Z</time>
      </trkpt>
      <trkpt lat="43.63567" lon="7.04728">
        <ele>113.66423797607</ele>
        <time>2012-06-11T10:41:27Z</time>
      </trkpt>
      <trkpt lat="43.63565" lon="7.0472">
        <ele>113.73809051514</ele>
        <time>2012-06-11T10:41:30Z</time>
      </trkpt>
      <trkpt lat="43.63565" lon="7.04713">
        <ele>113.9990158081</ele>
        <time>2012-06-11T10:41:32Z</time>
      </trkpt>
      <trkpt lat="43.63561" lon="7.04697">
        <ele>114.31658935547</ele>
        <time>2012-06-11T10:41:37Z</time>
      </trkpt>
      <trkpt lat="43.63559" lon="7.04694">
        <ele>114.29427337647</ele>
        <time>2012-06-11T10:41:38Z</time>
      </trkpt>
      <trkpt lat="43.63552" lon="7.04684">
        <ele>113.81326293945</ele>
        <time>2012-06-11T10:41:41Z</time>
      </trkpt>
      <trkpt lat="43.63549" lon="7.04681">
        <ele>113.54203796387</ele>
        <time>2012-06-11T10:41:42Z</time>
      </trkpt>
      <trkpt lat="43.63539" lon="7.04669">
        <ele>112.50177001953</ele>
        <time>2012-06-11T10:41:46Z</time>
      </trkpt>
      <trkpt lat="43.63537" lon="7.04649">
        <ele>112.78197479248</ele>
        <time>2012-06-11T10:41:50Z</time>
      </trkpt>
      <trkpt lat="43.63536" lon="7.04618">
        <ele>113.66402435303</ele>
        <time>2012-06-11T10:41:55Z</time>
      </trkpt>
      <trkpt lat="43.63538" lon="7.04588">
        <ele>114.9892501831</ele>
        <time>2012-06-11T10:42:00Z</time>
      </trkpt>
      <trkpt lat="43.6354" lon="7.04573">
        <ele>115.67761230469</ele>
        <time>2012-06-11T10:42:02Z</time>
      </trkpt>
      <trkpt lat="43.6354" lon="7.04564">
        <ele>116.04840087891</ele>
        <time>2012-06-11T10:42:04Z</time>
      </trkpt>
      <trkpt lat="43.63539" lon="7.04559">
        <ele>116.09303283691</ele>
        <time>2012-06-11T10:42:05Z</time>
      </trkpt>
      <trkpt lat="43.63535" lon="7.04547">
        <ele>116.12908172607</ele>
        <time>2012-06-11T10:42:08Z</time>
      </trkpt>
      <trkpt lat="43.63525" lon="7.04539">
        <ele>115.00094604492</ele>
        <time>2012-06-11T10:42:12Z</time>
      </trkpt>
      <trkpt lat="43.63524" lon="7.04529">
        <ele>115.1262588501</ele>
        <time>2012-06-11T10:42:15Z</time>
      </trkpt>
      <trkpt lat="43.63524" lon="7.04525">
        <ele>115.27891540527</ele>
        <time>2012-06-11T10:42:16Z</time>
      </trkpt>
      <trkpt lat="43.63526" lon="7.04511">
        <ele>116.22087860107</ele>
        <time>2012-06-11T10:42:20Z</time>
      </trkpt>
      <trkpt lat="43.63526" lon="7.04509">
        <ele>116.35303497315</ele>
        <time>2012-06-11T10:42:21Z</time>
      </trkpt>
      <trkpt lat="43.63525" lon="7.04506">
        <ele>116.17274475098</ele>
        <time>2012-06-11T10:42:24Z</time>
      </trkpt>
      <trkpt lat="43.63523" lon="7.04505">
        <ele>115.87830352783</ele>
        <time>2012-06-11T10:42:26Z</time>
      </trkpt>
      <trkpt lat="43.63521" lon="7.04503">
        <ele>115.67663574219</ele>
        <time>2012-06-11T10:42:30Z</time>
      </trkpt>
      <trkpt lat="43.6352" lon="7.04495">
        <ele>115.89655303955</ele>
        <time>2012-06-11T10:42:36Z</time>
      </trkpt>
      <trkpt lat="43.63522" lon="7.04489">
        <ele>116.41086578369</ele>
        <time>2012-06-11T10:42:40Z</time>
      </trkpt>
      <trkpt lat="43.63523" lon="7.04483">
        <ele>116.81983184815</ele>
        <time>2012-06-11T10:42:44Z</time>
      </trkpt>
      <trkpt lat="43.63524" lon="7.04472">
        <ele>117.51599884033</ele>
        <time>2012-06-11T10:42:51Z</time>
      </trkpt>
      <trkpt lat="43.63524" lon="7.04465">
        <ele>117.73915863037</ele>
        <time>2012-06-11T10:42:55Z</time>
      </trkpt>
      <trkpt lat="43.63525" lon="7.04461">
        <ele>117.9966506958</ele>
        <time>2012-06-11T10:42:58Z</time>
      </trkpt>
      <trkpt lat="43.63525" lon="7.04452">
        <ele>118.39318847656</ele>
        <time>2012-06-11T10:43:05Z</time>
      </trkpt>
      <trkpt lat="43.63525" lon="7.04445">
        <ele>118.52021789551</ele>
        <time>2012-06-11T10:43:15Z</time>
      </trkpt>
      <trkpt lat="43.63525" lon="7.04443">
        <ele>118.62428283691</ele>
        <time>2012-06-11T10:43:21Z</time>
      </trkpt>
      <trkpt lat="43.63526" lon="7.04439">
        <ele>118.92055511475</ele>
        <time>2012-06-11T10:43:30Z</time>
      </trkpt>
      <trkpt lat="43.63527" lon="7.04435">
        <ele>119.16493988037</ele>
        <time>2012-06-11T10:43:35Z</time>
      </trkpt>
      <trkpt lat="43.63527" lon="7.04423">
        <ele>119.61329650879</ele>
        <time>2012-06-11T10:43:41Z</time>
      </trkpt>
      <trkpt lat="43.63527" lon="7.04421">
        <ele>119.72860717773</ele>
        <time>2012-06-11T10:43:42Z</time>
      </trkpt>
      <trkpt lat="43.63531" lon="7.04412">
        <ele>120.45932006836</ele>
        <time>2012-06-11T10:43:49Z</time>
      </trkpt>
      <trkpt lat="43.63537" lon="7.04403">
        <ele>121.62682342529</ele>
        <time>2012-06-11T10:43:57Z</time>
      </trkpt>
      <trkpt lat="43.63539" lon="7.04402">
        <ele>122.07440948486</ele>
        <time>2012-06-11T10:43:59Z</time>
      </trkpt>
      <trkpt lat="43.63545" lon="7.04398">
        <ele>123.36935424805</ele>
        <time>2012-06-11T10:44:05Z</time>
      </trkpt>
      <trkpt lat="43.63553" lon="7.04392">
        <ele>125.31584167481</ele>
        <time>2012-06-11T10:44:15Z</time>
      </trkpt>
      <trkpt lat="43.63556" lon="7.0439">
        <ele>126.00262451172</ele>
        <time>2012-06-11T10:44:21Z</time>
      </trkpt>
      <trkpt lat="43.63562" lon="7.04386">
        <ele>127.00450897217</ele>
        <time>2012-06-11T10:44:28Z</time>
      </trkpt>
      <trkpt lat="43.63564" lon="7.04384">
        <ele>127.30290222168</ele>
        <time>2012-06-11T10:44:29Z</time>
      </trkpt>
      <trkpt lat="43.6357" lon="7.0438">
        <ele>128.43176269531</ele>
        <time>2012-06-11T10:44:33Z</time>
      </trkpt>
      <trkpt lat="43.63582" lon="7.0437">
        <ele>130.2237701416</ele>
        <time>2012-06-11T10:44:39Z</time>
      </trkpt>
      <trkpt lat="43.63593" lon="7.04359">
        <ele>132.24917602539</ele>
        <time>2012-06-11T10:44:45Z</time>
      </trkpt>
      <trkpt lat="43.63603" lon="7.04349">
        <ele>134.16290283203</ele>
        <time>2012-06-11T10:44:51Z</time>
      </trkpt>
      <trkpt lat="43.63609" lon="7.04348">
        <ele>134.73919677734</ele>
        <time>2012-06-11T10:44:54Z</time>
      </trkpt>
      <trkpt lat="43.63611" lon="7.04352">
        <ele>134.66114807129</ele>
        <time>2012-06-11T10:44:56Z</time>
      </trkpt>
      <trkpt lat="43.63611" lon="7.04363">
        <ele>133.86814880371</ele>
        <time>2012-06-11T10:45:01Z</time>
      </trkpt>
      <trkpt lat="43.63614" lon="7.04374">
        <ele>133.23933410644</ele>
        <time>2012-06-11T10:45:06Z</time>
      </trkpt>
      <trkpt lat="43.63621" lon="7.04386">
        <ele>132.93721008301</ele>
        <time>2012-06-11T10:45:12Z</time>
      </trkpt>
      <trkpt lat="43.63627" lon="7.04393">
        <ele>132.82048034668</ele>
        <time>2012-06-11T10:45:18Z</time>
      </trkpt>
      <trkpt lat="43.63629" lon="7.04397">
        <ele>132.70031738281</ele>
        <time>2012-06-11T10:45:35Z</time>
      </trkpt>
      <trkpt lat="43.6363" lon="7.04397">
        <ele>132.72778320312</ele>
        <time>2012-06-11T10:45:43Z</time>
      </trkpt>
      <trkpt lat="43.6363" lon="7.04407">
        <ele>132.06860351562</ele>
        <time>2012-06-11T10:46:27Z</time>
      </trkpt>
      <trkpt lat="43.63632" lon="7.04423">
        <ele>130.88882446289</ele>
        <time>2012-06-11T10:46:31Z</time>
      </trkpt>
      <trkpt lat="43.63622" lon="7.04428">
        <ele>129.79792785644</ele>
        <time>2012-06-11T10:46:35Z</time>
      </trkpt>
      <trkpt lat="43.6361" lon="7.04438">
        <ele>128.38185119629</ele>
        <time>2012-06-11T10:46:40Z</time>
      </trkpt>
      <trkpt lat="43.63611" lon="7.04444">
        <ele>128.04440307617</ele>
        <time>2012-06-11T10:46:45Z</time>
      </trkpt>
      <trkpt lat="43.63614" lon="7.04452">
        <ele>127.56024169922</ele>
        <time>2012-06-11T10:46:49Z</time>
      </trkpt>
      <trkpt lat="43.63614" lon="7.04452">
        <ele>127.59457397461</ele>
        <time>2012-06-11T10:46:50Z</time>
      </trkpt>
      <trkpt lat="43.63616" lon="7.04454">
        <ele>127.46067810059</ele>
        <time>2012-06-11T10:46:53Z</time>
      </trkpt>
      <trkpt lat="43.63617" lon="7.04465">
        <ele>126.73283386231</ele>
        <time>2012-06-11T10:46:58Z</time>
      </trkpt>
      <trkpt lat="43.6362" lon="7.04484">
        <ele>125.45223999023</ele>
        <time>2012-06-11T10:47:04Z</time>
      </trkpt>
      <trkpt lat="43.63621" lon="7.04502">
        <ele>124.18510437012</ele>
        <time>2012-06-11T10:47:09Z</time>
      </trkpt>
      <trkpt lat="43.63631" lon="7.04517">
        <ele>122.86331176758</ele>
        <time>2012-06-11T10:47:15Z</time>
      </trkpt>
      <trkpt lat="43.63646" lon="7.04529">
        <ele>122.13908386231</ele>
        <time>2012-06-11T10:47:20Z</time>
      </trkpt>
      <trkpt lat="43.63659" lon="7.04542">
        <ele>121.36110687256</ele>
        <time>2012-06-11T10:47:25Z</time>
      </trkpt>
      <trkpt lat="43.63667" lon="7.04558">
        <ele>120</ele>
        <time>2012-06-11T10:47:30Z</time>
      </trkpt>
      <trkpt lat="43.63678" lon="7.04558">
        <ele>120</ele>
        <time>2012-06-11T10:47:34Z</time>
      </trkpt>
      <trkpt lat="43.63696" lon="7.04548">
        <ele>121.1530456543</ele>
        <time>2012-06-11T10:47:41Z</time>
      </trkpt>
      <trkpt lat="43.63697" lon="7.04544">
        <ele>121.7160949707</ele>
        <time>2012-06-11T10:47:42Z</time>
      </trkpt>
      <trkpt lat="43.63696" lon="7.04531">
        <ele>123.50823974609</ele>
        <time>2012-06-11T10:47:45Z</time>
      </trkpt>
      <trkpt lat="43.63699" lon="7.04503">
        <ele>128.51419067383</ele>
        <time>2012-06-11T10:47:52Z</time>
      </trkpt>
      <trkpt lat="43.6371" lon="7.04494">
        <ele>130.60998535156</ele>
        <time>2012-06-11T10:47:56Z</time>
      </trkpt>
      <trkpt lat="43.63718" lon="7.04492">
        <ele>131.19879150391</ele>
        <time>2012-06-11T10:48:01Z</time>
      </trkpt>
      <trkpt lat="43.63715" lon="7.04488">
        <ele>131.95751953125</ele>
        <time>2012-06-11T10:48:05Z</time>
      </trkpt>
      <trkpt lat="43.63715" lon="7.04484">
        <ele>132.57035827637</ele>
        <time>2012-06-11T10:48:07Z</time>
      </trkpt>
      <trkpt lat="43.63715" lon="7.04481">
        <ele>133.06301879883</ele>
        <time>2012-06-11T10:48:12Z</time>
      </trkpt>
      <trkpt lat="43.63712" lon="7.04473">
        <ele>134.40370178223</ele>
        <time>2012-06-11T10:48:22Z</time>
      </trkpt>
      <trkpt lat="43.63705" lon="7.04459">
        <ele>136.0066986084</ele>
        <time>2012-06-11T10:48:29Z</time>
      </trkpt>
      <trkpt lat="43.63706" lon="7.04453">
        <ele>136.77030944824</ele>
        <time>2012-06-11T10:48:31Z</time>
      </trkpt>
      <trkpt lat="43.63709" lon="7.04444">
        <ele>138.13066101074</ele>
        <time>2012-06-11T10:48:34Z</time>
      </trkpt>
      <trkpt lat="43.6372" lon="7.04433">
        <ele>140.05581665039</ele>
        <time>2012-06-11T10:48:39Z</time>
      </trkpt>
      <trkpt lat="43.63725" lon="7.04423">
        <ele>141.40643310547</ele>
        <time>2012-06-11T10:48:43Z</time>
      </trkpt>
      <trkpt lat="43.63724" lon="7.04421">
        <ele>141.63278198242</ele>
        <time>2012-06-11T10:48:44Z</time>
      </trkpt>
      <trkpt lat="43.63716" lon="7.04418">
        <ele>141.65696716309</ele>
        <time>2012-06-11T10:48:49Z</time>
      </trkpt>
      <trkpt lat="43.63711" lon="7.04406">
        <ele>142.38206481934</ele>
        <time>2012-06-11T10:48:53Z</time>
      </trkpt>
      <trkpt lat="43.63711" lon="7.04401">
        <ele>142.70478820801</ele>
        <time>2012-06-11T10:48:54Z</time>
      </trkpt>
      <trkpt lat="43.63705" lon="7.0438">
        <ele>144.11123657227</ele>
        <time>2012-06-11T10:48:59Z</time>
      </trkpt>
      <trkpt lat="43.63697" lon="7.04342">
        <ele>147.236328125</ele>
        <time>2012-06-11T10:49:08Z</time>
      </trkpt>
      <trkpt lat="43.63696" lon="7.0432">
        <ele>149.04663085938</ele>
        <time>2012-06-11T10:49:14Z</time>
      </trkpt>
      <trkpt lat="43.63698" lon="7.04316">
        <ele>149.42489624023</ele>
        <time>2012-06-11T10:49:17Z</time>
      </trkpt>
      <trkpt lat="43.63699" lon="7.04315">
        <ele>149.5412902832</ele>
        <time>2012-06-11T10:49:19Z</time>
      </trkpt>
      <trkpt lat="43.63699" lon="7.04312">
        <ele>149.68817138672</ele>
        <time>2012-06-11T10:49:21Z</time>
      </trkpt>
      <trkpt lat="43.63699" lon="7.04306">
        <ele>150.15005493164</ele>
        <time>2012-06-11T10:49:25Z</time>
      </trkpt>
      <trkpt lat="43.637" lon="7.04303">
        <ele>150.37062072754</ele>
        <time>2012-06-11T10:49:28Z</time>
      </trkpt>
      <trkpt lat="43.637" lon="7.04302">
        <ele>150.49844360352</ele>
        <time>2012-06-11T10:49:30Z</time>
      </trkpt>
      <trkpt lat="43.63698" lon="7.04299">
        <ele>150.66667175293</ele>
        <time>2012-06-11T10:49:32Z</time>
      </trkpt>
      <trkpt lat="43.63696" lon="7.04293">
        <ele>150.96897888184</ele>
        <time>2012-06-11T10:49:36Z</time>
      </trkpt>
      <trkpt lat="43.63688" lon="7.04284">
        <ele>150.80195617676</ele>
        <time>2012-06-11T10:49:44Z</time>
      </trkpt>
      <trkpt lat="43.63682" lon="7.04281">
        <ele>150.36180114746</ele>
        <time>2012-06-11T10:49:50Z</time>
      </trkpt>
      <trkpt lat="43.63677" lon="7.04278">
        <ele>150.16247558594</ele>
        <time>2012-06-11T10:49:59Z</time>
      </trkpt>
      <trkpt lat="43.63665" lon="7.04271">
        <ele>149.44474792481</ele>
        <time>2012-06-11T10:50:32Z</time>
      </trkpt>
      <trkpt lat="43.63651" lon="7.04257">
        <ele>148.77595520019</ele>
        <time>2012-06-11T10:50:37Z</time>
      </trkpt>
      <trkpt lat="43.63634" lon="7.04236">
        <ele>148.58450317383</ele>
        <time>2012-06-11T10:50:42Z</time>
      </trkpt>
      <trkpt lat="43.63615" lon="7.0423">
        <ele>147.52093505859</ele>
        <time>2012-06-11T10:50:46Z</time>
      </trkpt>
      <trkpt lat="43.63603" lon="7.04225">
        <ele>146.54891967773</ele>
        <time>2012-06-11T10:50:49Z</time>
      </trkpt>
      <trkpt lat="43.63596" lon="7.04218">
        <ele>146.44631958008</ele>
        <time>2012-06-11T10:50:51Z</time>
      </trkpt>
      <trkpt lat="43.63578" lon="7.04208">
        <ele>145.7880859375</ele>
        <time>2012-06-11T10:50:56Z</time>
      </trkpt>
      <trkpt lat="43.63569" lon="7.04208">
        <ele>145.27487182617</ele>
        <time>2012-06-11T10:50:58Z</time>
      </trkpt>
      <trkpt lat="43.63562" lon="7.04211">
        <ele>144.36140441894</ele>
        <time>2012-06-11T10:51:00Z</time>
      </trkpt>
      <trkpt lat="43.63558" lon="7.04211">
        <ele>144.10501098633</ele>
        <time>2012-06-11T10:51:01Z</time>
      </trkpt>
      <trkpt lat="43.63551" lon="7.04214">
        <ele>142.62571716309</ele>
        <time>2012-06-11T10:51:03Z</time>
      </trkpt>
      <trkpt lat="43.63531" lon="7.04212">
        <ele>139.88032531738</ele>
        <time>2012-06-11T10:51:08Z</time>
      </trkpt>
      <trkpt lat="43.63512" lon="7.04198">
        <ele>140.33038330078</ele>
        <time>2012-06-11T10:51:13Z</time>
      </trkpt>
      <trkpt lat="43.63505" lon="7.04189">
        <ele>141.60711669922</ele>
        <time>2012-06-11T10:51:15Z</time>
      </trkpt>
      <trkpt lat="43.63491" lon="7.04168">
        <ele>144.45927429199</ele>
        <time>2012-06-11T10:51:19Z</time>
      </trkpt>
      <trkpt lat="43.63483" lon="7.04158">
        <ele>144.56057739258</ele>
        <time>2012-06-11T10:51:21Z</time>
      </trkpt>
      <trkpt lat="43.63469" lon="7.04142">
        <ele>144.15533447266</ele>
        <time>2012-06-11T10:51:24Z</time>
      </trkpt>
      <trkpt lat="43.63456" lon="7.04125">
        <ele>144.51104736328</ele>
        <time>2012-06-11T10:51:27Z</time>
      </trkpt>
      <trkpt lat="43.63447" lon="7.04107">
        <ele>144.95137023926</ele>
        <time>2012-06-11T10:51:30Z</time>
      </trkpt>
      <trkpt lat="43.63444" lon="7.04101">
        <ele>145.04187011719</ele>
        <time>2012-06-11T10:51:31Z</time>
      </trkpt>
      <trkpt lat="43.63437" lon="7.0409">
        <ele>144.65640258789</ele>
        <time>2012-06-11T10:51:33Z</time>
      </trkpt>
      <trkpt lat="43.63429" lon="7.04083">
        <ele>143.07852172852</ele>
        <time>2012-06-11T10:51:35Z</time>
      </trkpt>
      <trkpt lat="43.63417" lon="7.04075">
        <ele>140.10575866699</ele>
        <time>2012-06-11T10:51:38Z</time>
      </trkpt>
      <trkpt lat="43.63406" lon="7.04068">
        <ele>138.11187744141</ele>
        <time>2012-06-11T10:51:41Z</time>
      </trkpt>
      <trkpt lat="43.63395" lon="7.04045">
        <ele>135.31475830078</ele>
        <time>2012-06-11T10:51:46Z</time>
      </trkpt>
      <trkpt lat="43.63393" lon="7.04017">
        <ele>131.35902404785</ele>
        <time>2012-06-11T10:51:50Z</time>
      </trkpt>
      <trkpt lat="43.63393" lon="7.04011">
        <ele>130.39265441894</ele>
        <time>2012-06-11T10:51:51Z</time>
      </trkpt>
      <trkpt lat="43.63395" lon="7.03965">
        <ele>123.86364746094</ele>
        <time>2012-06-11T10:51:58Z</time>
      </trkpt>
      <trkpt lat="43.63399" lon="7.03941">
        <ele>122.45025634766</ele>
        <time>2012-06-11T10:52:02Z</time>
      </trkpt>
      <trkpt lat="43.63403" lon="7.03931">
        <ele>122.81386566162</ele>
        <time>2012-06-11T10:52:04Z</time>
      </trkpt>
      <trkpt lat="43.63417" lon="7.03917">
        <ele>124.07122802734</ele>
        <time>2012-06-11T10:52:08Z</time>
      </trkpt>
      <trkpt lat="43.6342" lon="7.03915">
        <ele>124.9822769165</ele>
        <time>2012-06-11T10:52:09Z</time>
      </trkpt>
      <trkpt lat="43.63436" lon="7.03911">
        <ele>129.46685791016</ele>
        <time>2012-06-11T10:52:13Z</time>
      </trkpt>
      <trkpt lat="43.63448" lon="7.03914">
        <ele>132.92535400391</ele>
        <time>2012-06-11T10:52:16Z</time>
      </trkpt>
      <trkpt lat="43.63456" lon="7.03916">
        <ele>135.3869934082</ele>
        <time>2012-06-11T10:52:18Z</time>
      </trkpt>
      <trkpt lat="43.63464" lon="7.03916">
        <ele>137.70613098144</ele>
        <time>2012-06-11T10:52:20Z</time>
      </trkpt>
      <trkpt lat="43.63489" lon="7.03907">
        <ele>144.66235351562</ele>
        <time>2012-06-11T10:52:26Z</time>
      </trkpt>
      <trkpt lat="43.63506" lon="7.03897">
        <ele>146.59986877441</ele>
        <time>2012-06-11T10:52:30Z</time>
      </trkpt>
      <trkpt lat="43.63514" lon="7.03889">
        <ele>147.77230834961</ele>
        <time>2012-06-11T10:52:32Z</time>
      </trkpt>
      <trkpt lat="43.63524" lon="7.03872">
        <ele>148.51309204102</ele>
        <time>2012-06-11T10:52:35Z</time>
      </trkpt>
      <trkpt lat="43.63532" lon="7.03857">
        <ele>147.48200988769</ele>
        <time>2012-06-11T10:52:37Z</time>
      </trkpt>
      <trkpt lat="43.63552" lon="7.03813">
        <ele>150.14082336426</ele>
        <time>2012-06-11T10:52:43Z</time>
      </trkpt>
      <trkpt lat="43.6356" lon="7.03784">
        <ele>144.75415039062</ele>
        <time>2012-06-11T10:52:47Z</time>
      </trkpt>
      <trkpt lat="43.63562" lon="7.03769">
        <ele>143.0373840332</ele>
        <time>2012-06-11T10:52:49Z</time>
      </trkpt>
      <trkpt lat="43.63562" lon="7.03753">
        <ele>141.92185974121</ele>
        <time>2012-06-11T10:52:51Z</time>
      </trkpt>
      <trkpt lat="43.6356" lon="7.03735">
        <ele>140.48014831543</ele>
        <time>2012-06-11T10:52:53Z</time>
      </trkpt>
      <trkpt lat="43.63555" lon="7.03715">
        <ele>140</ele>
        <time>2012-06-11T10:52:55Z</time>
      </trkpt>
      <trkpt lat="43.6355" lon="7.03694">
        <ele>140</ele>
        <time>2012-06-11T10:52:57Z</time>
      </trkpt>
      <trkpt lat="43.63542" lon="7.03663">
        <ele>140</ele>
        <time>2012-06-11T10:53:00Z</time>
      </trkpt>
      <trkpt lat="43.63542" lon="7.03654">
        <ele>140</ele>
        <time>2012-06-11T10:53:01Z</time>
      </trkpt>
      <trkpt lat="43.63554" lon="7.03643">
        <ele>140</ele>
        <time>2012-06-11T10:53:04Z</time>
      </trkpt>
      <trkpt lat="43.63574" lon="7.03644">
        <ele>140</ele>
        <time>2012-06-11T10:53:07Z</time>
      </trkpt>
      <trkpt lat="43.63588" lon="7.0364">
        <ele>141.71447753906</ele>
        <time>2012-06-11T10:53:10Z</time>
      </trkpt>
      <trkpt lat="43.63591" lon="7.03637">
        <ele>142.54049682617</ele>
        <time>2012-06-11T10:53:11Z</time>
      </trkpt>
      <trkpt lat="43.63599" lon="7.03623">
        <ele>144.01213073731</ele>
        <time>2012-06-11T10:53:15Z</time>
      </trkpt>
      <trkpt lat="43.63601" lon="7.03616">
        <ele>143.67414855957</ele>
        <time>2012-06-11T10:53:16Z</time>
      </trkpt>
      <trkpt lat="43.63606" lon="7.03604">
        <ele>143.05392456055</ele>
        <time>2012-06-11T10:53:19Z</time>
      </trkpt>
      <trkpt lat="43.63607" lon="7.036">
        <ele>142.50401306152</ele>
        <time>2012-06-11T10:53:21Z</time>
      </trkpt>
      <trkpt lat="43.63606" lon="7.03597">
        <ele>142.02775573731</ele>
        <time>2012-06-11T10:53:23Z</time>
      </trkpt>
      <trkpt lat="43.63606" lon="7.03597">
        <ele>142.00537109375</ele>
        <time>2012-06-11T10:53:26Z</time>
      </trkpt>
      <trkpt lat="43.63604" lon="7.03592">
        <ele>141.16743469238</ele>
        <time>2012-06-11T10:53:32Z</time>
      </trkpt>
      <trkpt lat="43.63601" lon="7.03594">
        <ele>141.15933227539</ele>
        <time>2012-06-11T10:53:34Z</time>
      </trkpt>
      <trkpt lat="43.63596" lon="7.03599">
        <ele>141.26799011231</ele>
        <time>2012-06-11T10:53:39Z</time>
      </trkpt>
      <trkpt lat="43.63585" lon="7.03605">
        <ele>140.22366333008</ele>
        <time>2012-06-11T10:53:44Z</time>
      </trkpt>
      <trkpt lat="43.6358" lon="7.03606">
        <ele>140</ele>
        <time>2012-06-11T10:53:47Z</time>
      </trkpt>
      <trkpt lat="43.63576" lon="7.03603">
        <ele>140</ele>
        <time>2012-06-11T10:53:49Z</time>
      </trkpt>
      <trkpt lat="43.63574" lon="7.03601">
        <ele>140</ele>
        <time>2012-06-11T10:53:50Z</time>
      </trkpt>
      <trkpt lat="43.63574" lon="7.03599">
        <ele>140</ele>
        <time>2012-06-11T10:53:51Z</time>
      </trkpt>
      <trkpt lat="43.63573" lon="7.03594">
        <ele>140</ele>
        <time>2012-06-11T10:53:54Z</time>
      </trkpt>
      <trkpt lat="43.63574" lon="7.03588">
        <ele>140</ele>
        <time>2012-06-11T10:53:58Z</time>
      </trkpt>
      <trkpt lat="43.63574" lon="7.03588">
        <ele>140</ele>
        <time>2012-06-11T10:53:59Z</time>
      </trkpt>
      <trkpt lat="43.63582" lon="7.03586">
        <ele>140</ele>
        <time>2012-06-11T10:55:02Z</time>
      </trkpt>
      <trkpt lat="43.63588" lon="7.03579">
        <ele>140</ele>
        <time>2012-06-11T10:55:16Z</time>
      </trkpt>
      <trkpt lat="43.63596" lon="7.03565">
        <ele>140</ele>
        <time>2012-06-11T10:55:21Z</time>
      </trkpt>
      <trkpt lat="43.63599" lon="7.03548">
        <ele>140</ele>
        <time>2012-06-11T10:55:26Z</time>
      </trkpt>
      <trkpt lat="43.63601" lon="7.03533">
        <ele>140</ele>
        <time>2012-06-11T10:55:32Z</time>
      </trkpt>
      <trkpt lat="43.636" lon="7.03513">
        <ele>140</ele>
        <time>2012-06-11T10:55:39Z</time>
      </trkpt>
      <trkpt lat="43.63599" lon="7.03494">
        <ele>140</ele>
        <time>2012-06-11T10:55:47Z</time>
      </trkpt>
      <trkpt lat="43.63595" lon="7.03465">
        <ele>140</ele>
        <time>2012-06-11T10:55:58Z</time>
      </trkpt>
      <trkpt lat="43.63593" lon="7.03464">
        <ele>140</ele>
        <time>2012-06-11T10:55:59Z</time>
      </trkpt>
      <trkpt lat="43.63589" lon="7.03466">
        <ele>140</ele>
        <time>2012-06-11T10:56:01Z</time>
      </trkpt>
      <trkpt lat="43.63585" lon="7.03475">
        <ele>140</ele>
        <time>2012-06-11T10:56:04Z</time>
      </trkpt>
      <trkpt lat="43.63585" lon="7.03479">
        <ele>140</ele>
        <time>2012-06-11T10:56:05Z</time>
      </trkpt>
      <trkpt lat="43.63582" lon="7.035">
        <ele>140</ele>
        <time>2012-06-11T10:56:12Z</time>
      </trkpt>
      <trkpt lat="43.63576" lon="7.03516">
        <ele>140</ele>
        <time>2012-06-11T10:56:18Z</time>
      </trkpt>
      <trkpt lat="43.63565" lon="7.0353">
        <ele>140</ele>
        <time>2012-06-11T10:56:25Z</time>
      </trkpt>
      <trkpt lat="43.63549" lon="7.03542">
        <ele>140.23385620117</ele>
        <time>2012-06-11T10:56:32Z</time>
      </trkpt>
      <trkpt lat="43.63531" lon="7.03554">
        <ele>140.07257080078</ele>
        <time>2012-06-11T10:56:40Z</time>
      </trkpt>
      <trkpt lat="43.63517" lon="7.03568">
        <ele>144.78408813477</ele>
        <time>2012-06-11T10:56:48Z</time>
      </trkpt>
      <trkpt lat="43.63506" lon="7.03582">
        <ele>148.04502868652</ele>
        <time>2012-06-11T10:56:55Z</time>
      </trkpt>
      <trkpt lat="43.63496" lon="7.03594">
        <ele>148.97840881348</ele>
        <time>2012-06-11T10:57:01Z</time>
      </trkpt>
      <trkpt lat="43.63481" lon="7.03604">
        <ele>152.30863952637</ele>
        <time>2012-06-11T10:57:08Z</time>
      </trkpt>
      <trkpt lat="43.63468" lon="7.03619">
        <ele>154.50958251953</ele>
        <time>2012-06-11T10:57:15Z</time>
      </trkpt>
      <trkpt lat="43.63454" lon="7.03629">
        <ele>159.01406860352</ele>
        <time>2012-06-11T10:57:22Z</time>
      </trkpt>
      <trkpt lat="43.63439" lon="7.03638">
        <ele>163.56605529785</ele>
        <time>2012-06-11T10:57:29Z</time>
      </trkpt>
      <trkpt lat="43.63421" lon="7.03643">
        <ele>167.96794128418</ele>
        <time>2012-06-11T10:57:36Z</time>
      </trkpt>
      <trkpt lat="43.63401" lon="7.0364">
        <ele>173.00932312012</ele>
        <time>2012-06-11T10:57:43Z</time>
      </trkpt>
      <trkpt lat="43.63385" lon="7.03632">
        <ele>177.86807250977</ele>
        <time>2012-06-11T10:57:50Z</time>
      </trkpt>
      <trkpt lat="43.6337" lon="7.03624">
        <ele>182.20080566406</ele>
        <time>2012-06-11T10:57:56Z</time>
      </trkpt>
      <trkpt lat="43.63356" lon="7.03615">
        <ele>185.82760620117</ele>
        <time>2012-06-11T10:58:02Z</time>
      </trkpt>
      <trkpt lat="43.63335" lon="7.03606">
        <ele>188.88941955566</ele>
        <time>2012-06-11T10:58:10Z</time>
      </trkpt>
      <trkpt lat="43.63316" lon="7.0359">
        <ele>191.05123901367</ele>
        <time>2012-06-11T10:58:18Z</time>
      </trkpt>
      <trkpt lat="43.63297" lon="7.03567">
        <ele>194.34967041016</ele>
        <time>2012-06-11T10:58:27Z</time>
      </trkpt>
      <trkpt lat="43.63285" lon="7.03543">
        <ele>196.74124145508</ele>
        <time>2012-06-11T10:58:35Z</time>
      </trkpt>
      <trkpt lat="43.63281" lon="7.03527">
        <ele>198.52595520019</ele>
        <time>2012-06-11T10:58:41Z</time>
      </trkpt>
      <trkpt lat="43.63279" lon="7.03509">
        <ele>201.46546936035</ele>
        <time>2012-06-11T10:58:48Z</time>
      </trkpt>
      <trkpt lat="43.63279" lon="7.03484">
        <ele>204.8017578125</ele>
        <time>2012-06-11T10:58:57Z</time>
      </trkpt>
      <trkpt lat="43.63278" lon="7.03463">
        <ele>206.68525695801</ele>
        <time>2012-06-11T10:59:04Z</time>
      </trkpt>
      <trkpt lat="43.63272" lon="7.0345">
        <ele>206.72239685059</ele>
        <time>2012-06-11T10:59:09Z</time>
      </trkpt>
      <trkpt lat="43.63258" lon="7.03446">
        <ele>205.10877990723</ele>
        <time>2012-06-11T10:59:15Z</time>
      </trkpt>
      <trkpt lat="43.63238" lon="7.0344">
        <ele>203.12243652344</ele>
        <time>2012-06-11T10:59:24Z</time>
      </trkpt>
      <trkpt lat="43.63223" lon="7.03428">
        <ele>202.84436035156</ele>
        <time>2012-06-11T10:59:31Z</time>
      </trkpt>
      <trkpt lat="43.63213" lon="7.03413">
        <ele>203.36067199707</ele>
        <time>2012-06-11T10:59:37Z</time>
      </trkpt>
      <trkpt lat="43.63203" lon="7.03395">
        <ele>203.74795532227</ele>
        <time>2012-06-11T10:59:44Z</time>
      </trkpt>
      <trkpt lat="43.63195" lon="7.03379">
        <ele>203.81037902832</ele>
        <time>2012-06-11T10:59:51Z</time>
      </trkpt>
      <trkpt lat="43.63195" lon="7.03374">
        <ele>204.13310241699</ele>
        <time>2012-06-11T10:59:53Z</time>
      </trkpt>
      <trkpt lat="43.63198" lon="7.0337">
        <ele>204.84378051758</ele>
        <time>2012-06-11T10:59:56Z</time>
      </trkpt>
      <trkpt lat="43.63201" lon="7.03371">
        <ele>205.17680358887</ele>
        <time>2012-06-11T10:59:59Z</time>
      </trkpt>
      <trkpt lat="43.63201" lon="7.03371">
        <ele>205.16993713379</ele>
        <time>2012-06-11T11:00:00Z</time>
      </trkpt>
      <trkpt lat="43.63203" lon="7.0338">
        <ele>204.86094665527</ele>
        <time>2012-06-11T11:00:13Z</time>
      </trkpt>
      <trkpt lat="43.63214" lon="7.03393">
        <ele>205.45315551758</ele>
        <time>2012-06-11T11:00:19Z</time>
      </trkpt>
      <trkpt lat="43.63228" lon="7.034">
        <ele>206.42349243164</ele>
        <time>2012-06-11T11:00:25Z</time>
      </trkpt>
      <trkpt lat="43.63243" lon="7.034">
        <ele>208.07659912109</ele>
        <time>2012-06-11T11:00:31Z</time>
      </trkpt>
      <trkpt lat="43.63263" lon="7.03394">
        <ele>211.30960083008</ele>
        <time>2012-06-11T11:00:40Z</time>
      </trkpt>
      <trkpt lat="43.63277" lon="7.03388">
        <ele>213.89627075195</ele>
        <time>2012-06-11T11:00:47Z</time>
      </trkpt>
      <trkpt lat="43.63289" lon="7.03382">
        <ele>215.3113861084</ele>
        <time>2012-06-11T11:00:53Z</time>
      </trkpt>
      <trkpt lat="43.63303" lon="7.03377">
        <ele>216.64347839356</ele>
        <time>2012-06-11T11:00:59Z</time>
      </trkpt>
      <trkpt lat="43.63327" lon="7.0337">
        <ele>216.62145996094</ele>
        <time>2012-06-11T11:01:08Z</time>
      </trkpt>
      <trkpt lat="43.63351" lon="7.03364">
        <ele>216.17170715332</ele>
        <time>2012-06-11T11:01:16Z</time>
      </trkpt>
      <trkpt lat="43.63372" lon="7.03357">
        <ele>214.84959411621</ele>
        <time>2012-06-11T11:01:23Z</time>
      </trkpt>
      <trkpt lat="43.63393" lon="7.03342">
        <ele>212.59622192383</ele>
        <time>2012-06-11T11:01:30Z</time>
      </trkpt>
      <trkpt lat="43.63411" lon="7.03326">
        <ele>210.00262451172</ele>
        <time>2012-06-11T11:01:36Z</time>
      </trkpt>
      <trkpt lat="43.63429" lon="7.03311">
        <ele>206.03340148926</ele>
        <time>2012-06-11T11:01:42Z</time>
      </trkpt>
      <trkpt lat="43.63448" lon="7.03298">
        <ele>199.31021118164</ele>
        <time>2012-06-11T11:01:48Z</time>
      </trkpt>
      <trkpt lat="43.63469" lon="7.0328">
        <ele>189.78128051758</ele>
        <time>2012-06-11T11:01:54Z</time>
      </trkpt>
      <trkpt lat="43.63484" lon="7.0326">
        <ele>186.49951171875</ele>
        <time>2012-06-11T11:01:59Z</time>
      </trkpt>
      <trkpt lat="43.63489" lon="7.03251">
        <ele>185.77328491211</ele>
        <time>2012-06-11T11:02:01Z</time>
      </trkpt>
      <trkpt lat="43.63497" lon="7.03237">
        <ele>184.28759765625</ele>
        <time>2012-06-11T11:02:04Z</time>
      </trkpt>
      <trkpt lat="43.63505" lon="7.03214">
        <ele>181.9231262207</ele>
        <time>2012-06-11T11:02:08Z</time>
      </trkpt>
      <trkpt lat="43.63512" lon="7.03181">
        <ele>179.87117004394</ele>
        <time>2012-06-11T11:02:14Z</time>
      </trkpt>
      <trkpt lat="43.63519" lon="7.03129">
        <ele>179.40188598633</ele>
        <time>2012-06-11T11:02:22Z</time>
      </trkpt>
      <trkpt lat="43.63522" lon="7.03087">
        <ele>179.32614135742</ele>
        <time>2012-06-11T11:02:28Z</time>
      </trkpt>
      <trkpt lat="43.63521" lon="7.03034">
        <ele>179.24064636231</ele>
        <time>2012-06-11T11:02:35Z</time>
      </trkpt>
      <trkpt lat="43.63521" lon="7.02982">
        <ele>177.04650878906</ele>
        <time>2012-06-11T11:02:42Z</time>
      </trkpt>
      <trkpt lat="43.63522" lon="7.02967">
        <ele>176.03686523438</ele>
        <time>2012-06-11T11:02:44Z</time>
      </trkpt>
      <trkpt lat="43.63523" lon="7.02937">
        <ele>174.54096984863</ele>
        <time>2012-06-11T11:02:48Z</time>
      </trkpt>
      <trkpt lat="43.63524" lon="7.02902">
        <ele>174.84521484375</ele>
        <time>2012-06-11T11:02:53Z</time>
      </trkpt>
      <trkpt lat="43.63521" lon="7.02887">
        <ele>175.54476928711</ele>
        <time>2012-06-11T11:02:55Z</time>
      </trkpt>
      <trkpt lat="43.63506" lon="7.02841">
        <ele>179.14640808106</ele>
        <time>2012-06-11T11:03:01Z</time>
      </trkpt>
      <trkpt lat="43.63499" lon="7.02815">
        <ele>180.81663513184</ele>
        <time>2012-06-11T11:03:04Z</time>
      </trkpt>
      <trkpt lat="43.63498" lon="7.02798">
        <ele>181.7624206543</ele>
        <time>2012-06-11T11:03:06Z</time>
      </trkpt>
      <trkpt lat="43.635" lon="7.02779">
        <ele>181.98544311523</ele>
        <time>2012-06-11T11:03:10Z</time>
      </trkpt>
      <trkpt lat="43.63514" lon="7.02769">
        <ele>180.25300598144</ele>
        <time>2012-06-11T11:03:13Z</time>
      </trkpt>
      <trkpt lat="43.6352" lon="7.02765">
        <ele>179.51829528809</ele>
        <time>2012-06-11T11:03:14Z</time>
      </trkpt>
      <trkpt lat="43.63553" lon="7.02744">
        <ele>173.79188537598</ele>
        <time>2012-06-11T11:03:20Z</time>
      </trkpt>
      <trkpt lat="43.63576" lon="7.02717">
        <ele>171.33786010742</ele>
        <time>2012-06-11T11:03:25Z</time>
      </trkpt>
      <trkpt lat="43.63587" lon="7.02698">
        <ele>170.42481994629</ele>
        <time>2012-06-11T11:03:28Z</time>
      </trkpt>
      <trkpt lat="43.63594" lon="7.02688">
        <ele>170.10502624512</ele>
        <time>2012-06-11T11:03:30Z</time>
      </trkpt>
      <trkpt lat="43.63608" lon="7.0267">
        <ele>170.00379943848</ele>
        <time>2012-06-11T11:03:34Z</time>
      </trkpt>
      <trkpt lat="43.63609" lon="7.02666">
        <ele>170.16734313965</ele>
        <time>2012-06-11T11:03:35Z</time>
      </trkpt>
      <trkpt lat="43.63616" lon="7.02651">
        <ele>171.12351989746</ele>
        <time>2012-06-11T11:03:38Z</time>
      </trkpt>
      <trkpt lat="43.63619" lon="7.02646">
        <ele>171.66902160644</ele>
        <time>2012-06-11T11:03:40Z</time>
      </trkpt>
      <trkpt lat="43.63623" lon="7.02642">
        <ele>172.05915832519</ele>
        <time>2012-06-11T11:03:42Z</time>
      </trkpt>
      <trkpt lat="43.63626" lon="7.02641">
        <ele>172.28854370117</ele>
        <time>2012-06-11T11:03:45Z</time>
      </trkpt>
      <trkpt lat="43.63626" lon="7.02641">
        <ele>172.29470825195</ele>
        <time>2012-06-11T11:03:46Z</time>
      </trkpt>
      <trkpt lat="43.63629" lon="7.02634">
        <ele>173.23522949219</ele>
        <time>2012-06-11T11:03:56Z</time>
      </trkpt>
      <trkpt lat="43.63629" lon="7.02632">
        <ele>173.5046081543</ele>
        <time>2012-06-11T11:03:58Z</time>
      </trkpt>
      <trkpt lat="43.63629" lon="7.02627">
        <ele>174.21162414551</ele>
        <time>2012-06-11T11:04:01Z</time>
      </trkpt>
      <trkpt lat="43.63632" lon="7.02619">
        <ele>175.42999267578</ele>
        <time>2012-06-11T11:04:08Z</time>
      </trkpt>
      <trkpt lat="43.63637" lon="7.02623">
        <ele>175.11001586914</ele>
        <time>2012-06-11T11:04:15Z</time>
      </trkpt>
      <trkpt lat="43.63644" lon="7.02634">
        <ele>175.09397888184</ele>
        <time>2012-06-11T11:04:19Z</time>
      </trkpt>
      <trkpt lat="43.63645" lon="7.02638">
        <ele>174.64305114746</ele>
        <time>2012-06-11T11:04:20Z</time>
      </trkpt>
      <trkpt lat="43.63652" lon="7.0266">
        <ele>172.79183959961</ele>
        <time>2012-06-11T11:04:24Z</time>
      </trkpt>
      <trkpt lat="43.63663" lon="7.02681">
        <ele>172.37719726562</ele>
        <time>2012-06-11T11:04:28Z</time>
      </trkpt>
      <trkpt lat="43.63667" lon="7.02681">
        <ele>172.97631835938</ele>
        <time>2012-06-11T11:04:29Z</time>
      </trkpt>
      <trkpt lat="43.63676" lon="7.02678">
        <ele>174.65173339844</ele>
        <time>2012-06-11T11:04:31Z</time>
      </trkpt>
      <trkpt lat="43.63694" lon="7.02663">
        <ele>179.45663452148</ele>
        <time>2012-06-11T11:04:35Z</time>
      </trkpt>
      <trkpt lat="43.63699" lon="7.0266">
        <ele>179.97587585449</ele>
        <time>2012-06-11T11:04:36Z</time>
      </trkpt>
      <trkpt lat="43.63712" lon="7.02651">
        <ele>180.89086914062</ele>
        <time>2012-06-11T11:04:39Z</time>
      </trkpt>
      <trkpt lat="43.63734" lon="7.02645">
        <ele>178.93984985352</ele>
        <time>2012-06-11T11:04:43Z</time>
      </trkpt>
      <trkpt lat="43.63748" lon="7.02637">
        <ele>177.64508056641</ele>
        <time>2012-06-11T11:04:46Z</time>
      </trkpt>
      <trkpt lat="43.63752" lon="7.02634">
        <ele>176.97908020019</ele>
        <time>2012-06-11T11:04:47Z</time>
      </trkpt>
      <trkpt lat="43.63767" lon="7.02629">
        <ele>174.59025573731</ele>
        <time>2012-06-11T11:04:50Z</time>
      </trkpt>
      <trkpt lat="43.63781" lon="7.02622">
        <ele>172.8044128418</ele>
        <time>2012-06-11T11:04:53Z</time>
      </trkpt>
      <trkpt lat="43.63784" lon="7.02618">
        <ele>172.34742736816</ele>
        <time>2012-06-11T11:04:54Z</time>
      </trkpt>
      <trkpt lat="43.63801" lon="7.02608">
        <ele>169.31205749512</ele>
        <time>2012-06-11T11:04:58Z</time>
      </trkpt>
      <trkpt lat="43.63806" lon="7.02606">
        <ele>168.24908447266</ele>
        <time>2012-06-11T11:04:59Z</time>
      </trkpt>
      <trkpt lat="43.63814" lon="7.02602">
        <ele>167.06614685059</ele>
        <time>2012-06-11T11:05:01Z</time>
      </trkpt>
      <trkpt lat="43.63818" lon="7.02603">
        <ele>166.15757751465</ele>
        <time>2012-06-11T11:05:03Z</time>
      </trkpt>
      <trkpt lat="43.63819" lon="7.02618">
        <ele>165.13371276856</ele>
        <time>2012-06-11T11:05:06Z</time>
      </trkpt>
      <trkpt lat="43.63819" lon="7.02626">
        <ele>164.51416015625</ele>
        <time>2012-06-11T11:05:09Z</time>
      </trkpt>
      <trkpt lat="43.63821" lon="7.0263">
        <ele>163.96173095703</ele>
        <time>2012-06-11T11:05:12Z</time>
      </trkpt>
      <trkpt lat="43.63821" lon="7.0263">
        <ele>163.90173339844</ele>
        <time>2012-06-11T11:05:15Z</time>
      </trkpt>
      <trkpt lat="43.63821" lon="7.02643">
        <ele>163.03056335449</ele>
        <time>2012-06-11T11:05:22Z</time>
      </trkpt>
      <trkpt lat="43.63811" lon="7.02666">
        <ele>161.66633605957</ele>
        <time>2012-06-11T11:05:26Z</time>
      </trkpt>
      <trkpt lat="43.63808" lon="7.02675">
        <ele>161.30511474609</ele>
        <time>2012-06-11T11:05:29Z</time>
      </trkpt>
      <trkpt lat="43.63808" lon="7.02687">
        <ele>160.46482849121</ele>
        <time>2012-06-11T11:05:33Z</time>
      </trkpt>
      <trkpt lat="43.63807" lon="7.02692">
        <ele>160.16520690918</ele>
        <time>2012-06-11T11:05:34Z</time>
      </trkpt>
      <trkpt lat="43.63808" lon="7.02701">
        <ele>160</ele>
        <time>2012-06-11T11:05:37Z</time>
      </trkpt>
      <trkpt lat="43.63808" lon="7.02705">
        <ele>160</ele>
        <time>2012-06-11T11:05:41Z</time>
      </trkpt>
      <trkpt lat="43.63809" lon="7.02708">
        <ele>160</ele>
        <time>2012-06-11T11:05:42Z</time>
      </trkpt>
      <trkpt lat="43.63812" lon="7.02708">
        <ele>160</ele>
        <time>2012-06-11T11:05:45Z</time>
      </trkpt>
      <trkpt lat="43.63813" lon="7.02708">
        <ele>160</ele>
        <time>2012-06-11T11:05:46Z</time>
      </trkpt>
      <trkpt lat="43.63815" lon="7.02707">
        <ele>160</ele>
        <time>2012-06-11T11:05:52Z</time>
      </trkpt>
      <trkpt lat="43.63818" lon="7.02706">
        <ele>160</ele>
        <time>2012-06-11T11:05:55Z</time>
      </trkpt>
      <trkpt lat="43.63819" lon="7.02706">
        <ele>160</ele>
        <time>2012-06-11T11:05:57Z</time>
      </trkpt>
      <trkpt lat="43.6382" lon="7.02708">
        <ele>160</ele>
        <time>2012-06-11T11:06:10Z</time>
      </trkpt>
      <trkpt lat="43.63824" lon="7.02696">
        <ele>160</ele>
        <time>2012-06-11T11:06:29Z</time>
      </trkpt>
      <trkpt lat="43.63831" lon="7.02676">
        <ele>160.13153076172</ele>
        <time>2012-06-11T11:06:34Z</time>
      </trkpt>
      <trkpt lat="43.63838" lon="7.02665">
        <ele>160.12396240234</ele>
        <time>2012-06-11T11:06:39Z</time>
      </trkpt>
      <trkpt lat="43.63853" lon="7.02656">
        <ele>160.23731994629</ele>
        <time>2012-06-11T11:06:45Z</time>
      </trkpt>
      <trkpt lat="43.63861" lon="7.02638">
        <ele>160</ele>
        <time>2012-06-11T11:06:49Z</time>
      </trkpt>
      <trkpt lat="43.63876" lon="7.02607">
        <ele>160.07286071777</ele>
        <time>2012-06-11T11:06:55Z</time>
      </trkpt>
      <trkpt lat="43.63879" lon="7.02602">
        <ele>160.12231445312</ele>
        <time>2012-06-11T11:06:56Z</time>
      </trkpt>
      <trkpt lat="43.63888" lon="7.02587">
        <ele>160.03378295898</ele>
        <time>2012-06-11T11:06:59Z</time>
      </trkpt>
      <trkpt lat="43.63891" lon="7.02582">
        <ele>160</ele>
        <time>2012-06-11T11:07:00Z</time>
      </trkpt>
      <trkpt lat="43.63899" lon="7.02565">
        <ele>160</ele>
        <time>2012-06-11T11:07:03Z</time>
      </trkpt>
      <trkpt lat="43.63906" lon="7.0255">
        <ele>160.07673645019</ele>
        <time>2012-06-11T11:07:06Z</time>
      </trkpt>
      <trkpt lat="43.63909" lon="7.02545">
        <ele>160.10168457031</ele>
        <time>2012-06-11T11:07:07Z</time>
      </trkpt>
      <trkpt lat="43.63914" lon="7.02535">
        <ele>160.06733703613</ele>
        <time>2012-06-11T11:07:10Z</time>
      </trkpt>
      <trkpt lat="43.63916" lon="7.02533">
        <ele>160.03030395508</ele>
        <time>2012-06-11T11:07:11Z</time>
      </trkpt>
      <trkpt lat="43.63922" lon="7.0252">
        <ele>160</ele>
        <time>2012-06-11T11:07:15Z</time>
      </trkpt>
      <trkpt lat="43.63927" lon="7.02503">
        <ele>160</ele>
        <time>2012-06-11T11:07:20Z</time>
      </trkpt>
      <trkpt lat="43.63934" lon="7.0248">
        <ele>160</ele>
        <time>2012-06-11T11:07:25Z</time>
      </trkpt>
      <trkpt lat="43.63941" lon="7.0245">
        <ele>160</ele>
        <time>2012-06-11T11:07:31Z</time>
      </trkpt>
      <trkpt lat="43.63946" lon="7.02424">
        <ele>160.13887023926</ele>
        <time>2012-06-11T11:07:36Z</time>
      </trkpt>
      <trkpt lat="43.63954" lon="7.02391">
        <ele>165.66087341309</ele>
        <time>2012-06-11T11:07:42Z</time>
      </trkpt>
      <trkpt lat="43.63959" lon="7.02361">
        <ele>168.16357421875</ele>
        <time>2012-06-11T11:07:47Z</time>
      </trkpt>
      <trkpt lat="43.63963" lon="7.02355">
        <ele>169.32072448731</ele>
        <time>2012-06-11T11:07:48Z</time>
      </trkpt>
      <trkpt lat="43.63971" lon="7.02331">
        <ele>172.72323608398</ele>
        <time>2012-06-11T11:07:53Z</time>
      </trkpt>
      <trkpt lat="43.63968" lon="7.02313">
        <ele>172.89582824707</ele>
        <time>2012-06-11T11:07:57Z</time>
      </trkpt>
      <trkpt lat="43.63966" lon="7.02303">
        <ele>172.88645935059</ele>
        <time>2012-06-11T11:08:01Z</time>
      </trkpt>
      <trkpt lat="43.63964" lon="7.02289">
        <ele>173.13192749023</ele>
        <time>2012-06-11T11:08:06Z</time>
      </trkpt>
      <trkpt lat="43.63965" lon="7.02266">
        <ele>174.21603393555</ele>
        <time>2012-06-11T11:08:12Z</time>
      </trkpt>
      <trkpt lat="43.63961" lon="7.02257">
        <ele>173.96827697754</ele>
        <time>2012-06-11T11:08:14Z</time>
      </trkpt>
      <trkpt lat="43.63957" lon="7.02249">
        <ele>173.88888549805</ele>
        <time>2012-06-11T11:08:16Z</time>
      </trkpt>
      <trkpt lat="43.63955" lon="7.02245">
        <ele>173.82913208008</ele>
        <time>2012-06-11T11:08:18Z</time>
      </trkpt>
      <trkpt lat="43.63953" lon="7.02245">
        <ele>173.53924560547</ele>
        <time>2012-06-11T11:08:19Z</time>
      </trkpt>
      <trkpt lat="43.63948" lon="7.02234">
        <ele>173.6276550293</ele>
        <time>2012-06-11T11:08:34Z</time>
      </trkpt>
      <trkpt lat="43.63947" lon="7.02234">
        <ele>173.53079223633</ele>
        <time>2012-06-11T11:08:35Z</time>
      </trkpt>
      <trkpt lat="43.63946" lon="7.02233">
        <ele>173.36695861816</ele>
        <time>2012-06-11T11:08:37Z</time>
      </trkpt>
      <trkpt lat="43.63944" lon="7.02232">
        <ele>173.25680541992</ele>
        <time>2012-06-11T11:08:39Z</time>
      </trkpt>
      <trkpt lat="43.63944" lon="7.02227">
        <ele>173.58178710938</ele>
        <time>2012-06-11T11:08:45Z</time>
      </trkpt>
      <trkpt lat="43.63939" lon="7.02215">
        <ele>172.96351623535</ele>
        <time>2012-06-11T11:09:00Z</time>
      </trkpt>
      <trkpt lat="43.63936" lon="7.02214">
        <ele>172.51033020019</ele>
        <time>2012-06-11T11:09:02Z</time>
      </trkpt>
      <trkpt lat="43.63933" lon="7.02207">
        <ele>172.02281188965</ele>
        <time>2012-06-11T11:09:09Z</time>
      </trkpt>
      <trkpt lat="43.63932" lon="7.02206">
        <ele>171.9129486084</ele>
        <time>2012-06-11T11:09:10Z</time>
      </trkpt>
      <trkpt lat="43.63933" lon="7.022">
        <ele>172.35412597656</ele>
        <time>2012-06-11T11:09:13Z</time>
      </trkpt>
      <trkpt lat="43.63933" lon="7.02199">
        <ele>172.31806945801</ele>
        <time>2012-06-11T11:09:14Z</time>
      </trkpt>
      <trkpt lat="43.63931" lon="7.02193">
        <ele>172.13993835449</ele>
        <time>2012-06-11T11:09:20Z</time>
      </trkpt>
      <trkpt lat="43.63927" lon="7.02189">
        <ele>171.58833312988</ele>
        <time>2012-06-11T11:09:22Z</time>
      </trkpt>
      <trkpt lat="43.63927" lon="7.02187">
        <ele>171.69560241699</ele>
        <time>2012-06-11T11:09:24Z</time>
      </trkpt>
      <trkpt lat="43.63927" lon="7.02181">
        <ele>172.01261901856</ele>
        <time>2012-06-11T11:09:30Z</time>
      </trkpt>
      <trkpt lat="43.63927" lon="7.02179">
        <ele>171.9942779541</ele>
        <time>2012-06-11T11:09:31Z</time>
      </trkpt>
      <trkpt lat="43.63926" lon="7.02167">
        <ele>172.4020690918</ele>
        <time>2012-06-11T11:09:36Z</time>
      </trkpt>
      <trkpt lat="43.6393" lon="7.02159">
        <ele>173.94995117188</ele>
        <time>2012-06-11T11:09:41Z</time>
      </trkpt>
      <trkpt lat="43.6393" lon="7.02158">
        <ele>174.02548217773</ele>
        <time>2012-06-11T11:09:42Z</time>
      </trkpt>
      <trkpt lat="43.63929" lon="7.02148">
        <ele>174.54389953613</ele>
        <time>2012-06-11T11:09:47Z</time>
      </trkpt>
      <trkpt lat="43.63931" lon="7.02133">
        <ele>175.79827880859</ele>
        <time>2012-06-11T11:09:52Z</time>
      </trkpt>
      <trkpt lat="43.63934" lon="7.02123">
        <ele>176.60121154785</ele>
        <time>2012-06-11T11:09:56Z</time>
      </trkpt>
      <trkpt lat="43.63934" lon="7.0212">
        <ele>176.77662658691</ele>
        <time>2012-06-11T11:09:57Z</time>
      </trkpt>
      <trkpt lat="43.63929" lon="7.02105">
        <ele>175.89663696289</ele>
        <time>2012-06-11T11:10:01Z</time>
      </trkpt>
      <trkpt lat="43.63929" lon="7.02103">
        <ele>175.77905273438</ele>
        <time>2012-06-11T11:10:02Z</time>
      </trkpt>
      <trkpt lat="43.63929" lon="7.02101">
        <ele>175.86323547363</ele>
        <time>2012-06-11T11:10:04Z</time>
      </trkpt>
      <trkpt lat="43.63934" lon="7.02091">
        <ele>177.62519836426</ele>
        <time>2012-06-11T11:10:19Z</time>
      </trkpt>
      <trkpt lat="43.63934" lon="7.02089">
        <ele>177.66021728516</ele>
        <time>2012-06-11T11:10:20Z</time>
      </trkpt>
      <trkpt lat="43.63935" lon="7.02085">
        <ele>177.94416809082</ele>
        <time>2012-06-11T11:10:24Z</time>
      </trkpt>
      <trkpt lat="43.63936" lon="7.0208">
        <ele>178.27565002441</ele>
        <time>2012-06-11T11:10:29Z</time>
      </trkpt>
      <trkpt lat="43.63931" lon="7.02076">
        <ele>177.41561889648</ele>
        <time>2012-06-11T11:10:32Z</time>
      </trkpt>
      <trkpt lat="43.63928" lon="7.02071">
        <ele>176.9521484375</ele>
        <time>2012-06-11T11:10:37Z</time>
      </trkpt>
      <trkpt lat="43.63929" lon="7.02064">
        <ele>177.42764282227</ele>
        <time>2012-06-11T11:10:42Z</time>
      </trkpt>
      <trkpt lat="43.63925" lon="7.02057">
        <ele>176.71868896484</ele>
        <time>2012-06-11T11:10:47Z</time>
      </trkpt>
      <trkpt lat="43.6391" lon="7.0204">
        <ele>174.58374023438</ele>
        <time>2012-06-11T11:10:53Z</time>
      </trkpt>
      <trkpt lat="43.63898" lon="7.02018">
        <ele>173.3864440918</ele>
        <time>2012-06-11T11:10:59Z</time>
      </trkpt>
      <trkpt lat="43.63894" lon="7.02002">
        <ele>172.88916015625</ele>
        <time>2012-06-11T11:11:03Z</time>
      </trkpt>
      <trkpt lat="43.63895" lon="7.01975">
        <ele>173.94232177734</ele>
        <time>2012-06-11T11:11:09Z</time>
      </trkpt>
      <trkpt lat="43.63896" lon="7.01951">
        <ele>175.07528686523</ele>
        <time>2012-06-11T11:11:14Z</time>
      </trkpt>
      <trkpt lat="43.63891" lon="7.01923">
        <ele>174.48544311523</ele>
        <time>2012-06-11T11:11:20Z</time>
      </trkpt>
      <trkpt lat="43.63897" lon="7.01897">
        <ele>176.15959167481</ele>
        <time>2012-06-11T11:11:25Z</time>
      </trkpt>
      <trkpt lat="43.63901" lon="7.01883">
        <ele>177.20489501953</ele>
        <time>2012-06-11T11:11:29Z</time>
      </trkpt>
      <trkpt lat="43.63901" lon="7.01863">
        <ele>177.13623046875</ele>
        <time>2012-06-11T11:11:33Z</time>
      </trkpt>
      <trkpt lat="43.63898" lon="7.01831">
        <ele>177.37359619141</ele>
        <time>2012-06-11T11:11:39Z</time>
      </trkpt>
      <trkpt lat="43.63899" lon="7.01806">
        <ele>178.09674072266</ele>
        <time>2012-06-11T11:11:43Z</time>
      </trkpt>
      <trkpt lat="43.63899" lon="7.018">
        <ele>178.2774810791</ele>
        <time>2012-06-11T11:11:44Z</time>
      </trkpt>
      <trkpt lat="43.63892" lon="7.01786">
        <ele>177.56663513184</ele>
        <time>2012-06-11T11:11:47Z</time>
      </trkpt>
      <trkpt lat="43.63887" lon="7.01779">
        <ele>176.91464233398</ele>
        <time>2012-06-11T11:11:49Z</time>
      </trkpt>
      <trkpt lat="43.63878" lon="7.0177">
        <ele>176.89801025391</ele>
        <time>2012-06-11T11:11:53Z</time>
      </trkpt>
      <trkpt lat="43.63874" lon="7.01765">
        <ele>176.93063354492</ele>
        <time>2012-06-11T11:11:58Z</time>
      </trkpt>
      <trkpt lat="43.63871" lon="7.01756">
        <ele>177.13491821289</ele>
        <time>2012-06-11T11:12:03Z</time>
      </trkpt>
      <trkpt lat="43.63866" lon="7.01736">
        <ele>177.16381835938</ele>
        <time>2012-06-11T11:12:10Z</time>
      </trkpt>
      <trkpt lat="43.63865" lon="7.01735">
        <ele>177.12261962891</ele>
        <time>2012-06-11T11:12:14Z</time>
      </trkpt>
      <trkpt lat="43.63869" lon="7.01743">
        <ele>177.30114746094</ele>
        <time>2012-06-11T11:12:19Z</time>
      </trkpt>
      <trkpt lat="43.63873" lon="7.01751">
        <ele>177.35978698731</ele>
        <time>2012-06-11T11:12:23Z</time>
      </trkpt>
      <trkpt lat="43.63873" lon="7.01756">
        <ele>177.23275756836</ele>
        <time>2012-06-11T11:12:26Z</time>
      </trkpt>
      <trkpt lat="43.63871" lon="7.01761">
        <ele>176.97526550293</ele>
        <time>2012-06-11T11:13:35Z</time>
      </trkpt>
      <trkpt lat="43.63871" lon="7.01765">
        <ele>176.82934570312</ele>
        <time>2012-06-11T11:13:37Z</time>
      </trkpt>
      <trkpt lat="43.63873" lon="7.01767">
        <ele>176.78987121582</ele>
        <time>2012-06-11T11:13:38Z</time>
      </trkpt>
      <trkpt lat="43.63874" lon="7.01776">
        <ele>176.55297851562</ele>
        <time>2012-06-11T11:13:42Z</time>
      </trkpt>
      <trkpt lat="43.63875" lon="7.0178">
        <ele>176.45053100586</ele>
        <time>2012-06-11T11:13:44Z</time>
      </trkpt>
      <trkpt lat="43.63872" lon="7.01794">
        <ele>176.03083801269</ele>
        <time>2012-06-11T11:13:49Z</time>
      </trkpt>
      <trkpt lat="43.63868" lon="7.01817">
        <ele>175.38856506348</ele>
        <time>2012-06-11T11:13:58Z</time>
      </trkpt>
      <trkpt lat="43.63865" lon="7.01837">
        <ele>175.02612304688</ele>
        <time>2012-06-11T11:14:05Z</time>
      </trkpt>
      <trkpt lat="43.63867" lon="7.01855">
        <ele>174.43389892578</ele>
        <time>2012-06-11T11:14:12Z</time>
      </trkpt>
      <trkpt lat="43.63864" lon="7.01866">
        <ele>174.10888671875</ele>
        <time>2012-06-11T11:14:17Z</time>
      </trkpt>
      <trkpt lat="43.63863" lon="7.01866">
        <ele>174.05395507812</ele>
        <time>2012-06-11T11:14:18Z</time>
      </trkpt>
      <trkpt lat="43.63858" lon="7.01859">
        <ele>174.29849243164</ele>
        <time>2012-06-11T11:14:22Z</time>
      </trkpt>
      <trkpt lat="43.63854" lon="7.01844">
        <ele>174.94976806641</ele>
        <time>2012-06-11T11:14:29Z</time>
      </trkpt>
      <trkpt lat="43.63853" lon="7.0184">
        <ele>175.09880065918</ele>
        <time>2012-06-11T11:14:31Z</time>
      </trkpt>
      <trkpt lat="43.63853" lon="7.01834">
        <ele>175.27203369141</ele>
        <time>2012-06-11T11:14:34Z</time>
      </trkpt>
      <trkpt lat="43.6385" lon="7.01824">
        <ele>175.41296386719</ele>
        <time>2012-06-11T11:14:40Z</time>
      </trkpt>
      <trkpt lat="43.63844" lon="7.01825">
        <ele>175.63269042969</ele>
        <time>2012-06-11T11:14:45Z</time>
      </trkpt>
      <trkpt lat="43.63843" lon="7.01827">
        <ele>175.66015625</ele>
        <time>2012-06-11T11:14:46Z</time>
      </trkpt>
      <trkpt lat="43.63843" lon="7.01838">
        <ele>175.60110473633</ele>
        <time>2012-06-11T11:14:51Z</time>
      </trkpt>
      <trkpt lat="43.63843" lon="7.01841">
        <ele>175.55464172363</ele>
        <time>2012-06-11T11:14:52Z</time>
      </trkpt>
      <trkpt lat="43.63846" lon="7.01859">
        <ele>175.10997009277</ele>
        <time>2012-06-11T11:15:00Z</time>
      </trkpt>
      <trkpt lat="43.63844" lon="7.01881">
        <ele>175.26538085938</ele>
        <time>2012-06-11T11:15:09Z</time>
      </trkpt>
      <trkpt lat="43.63846" lon="7.019">
        <ele>174.92370605469</ele>
        <time>2012-06-11T11:15:16Z</time>
      </trkpt>
      <trkpt lat="43.63846" lon="7.01928">
        <ele>174.60968017578</ele>
        <time>2012-06-11T11:15:25Z</time>
      </trkpt>
      <trkpt lat="43.63842" lon="7.0195">
        <ele>174.83619689941</ele>
        <time>2012-06-11T11:15:32Z</time>
      </trkpt>
      <trkpt lat="43.6384" lon="7.01961">
        <ele>174.63192749023</ele>
        <time>2012-06-11T11:15:39Z</time>
      </trkpt>
      <trkpt lat="43.63839" lon="7.01962">
        <ele>174.78813171387</ele>
        <time>2012-06-11T11:15:41Z</time>
      </trkpt>
      <trkpt lat="43.63837" lon="7.01961">
        <ele>174.96838378906</ele>
        <time>2012-06-11T11:15:43Z</time>
      </trkpt>
      <trkpt lat="43.63837" lon="7.0196">
        <ele>175.09025573731</ele>
        <time>2012-06-11T11:15:44Z</time>
      </trkpt>
      <trkpt lat="43.63833" lon="7.01956">
        <ele>175.60151672363</ele>
        <time>2012-06-11T11:15:47Z</time>
      </trkpt>
      <trkpt lat="43.63835" lon="7.01955">
        <ele>175.4284362793</ele>
        <time>2012-06-11T11:15:49Z</time>
      </trkpt>
      <trkpt lat="43.63833" lon="7.01947">
        <ele>175.90600585938</ele>
        <time>2012-06-11T11:16:05Z</time>
      </trkpt>
      <trkpt lat="43.63824" lon="7.01937">
        <ele>177.04040527344</ele>
        <time>2012-06-11T11:16:11Z</time>
      </trkpt>
      <trkpt lat="43.63816" lon="7.01931">
        <ele>177.82318115234</ele>
        <time>2012-06-11T11:16:17Z</time>
      </trkpt>
      <trkpt lat="43.63816" lon="7.01929">
        <ele>177.86437988281</ele>
        <time>2012-06-11T11:16:18Z</time>
      </trkpt>
      <trkpt lat="43.63813" lon="7.01925">
        <ele>178.19396972656</ele>
        <time>2012-06-11T11:16:20Z</time>
      </trkpt>
      <trkpt lat="43.63803" lon="7.01916">
        <ele>179.23010253906</ele>
        <time>2012-06-11T11:16:26Z</time>
      </trkpt>
      <trkpt lat="43.63799" lon="7.01907">
        <ele>179.41549682617</ele>
        <time>2012-06-11T11:16:31Z</time>
      </trkpt>
      <trkpt lat="43.63797" lon="7.01896">
        <ele>179.22665405273</ele>
        <time>2012-06-11T11:16:36Z</time>
      </trkpt>
      <trkpt lat="43.63795" lon="7.01887">
        <ele>179.03692626953</ele>
        <time>2012-06-11T11:16:42Z</time>
      </trkpt>
      <trkpt lat="43.6379" lon="7.01875">
        <ele>179.12661743164</ele>
        <time>2012-06-11T11:16:48Z</time>
      </trkpt>
      <trkpt lat="43.63787" lon="7.01865">
        <ele>178.84710693359</ele>
        <time>2012-06-11T11:16:53Z</time>
      </trkpt>
      <trkpt lat="43.63791" lon="7.01861">
        <ele>178.52783203125</ele>
        <time>2012-06-11T11:17:01Z</time>
      </trkpt>
      <trkpt lat="43.63792" lon="7.01855">
        <ele>178.47290039062</ele>
        <time>2012-06-11T11:17:16Z</time>
      </trkpt>
      <trkpt lat="43.63791" lon="7.01853">
        <ele>178.54156494141</ele>
        <time>2012-06-11T11:17:17Z</time>
      </trkpt>
      <trkpt lat="43.63786" lon="7.01848">
        <ele>178.72009277344</ele>
        <time>2012-06-11T11:17:22Z</time>
      </trkpt>
      <trkpt lat="43.63781" lon="7.01848">
        <ele>178.89862060547</ele>
        <time>2012-06-11T11:17:26Z</time>
      </trkpt>
      <trkpt lat="43.63781" lon="7.01849">
        <ele>178.88488769531</ele>
        <time>2012-06-11T11:17:27Z</time>
      </trkpt>
      <trkpt lat="43.6378" lon="7.01849">
        <ele>178.92608642578</ele>
        <time>2012-06-11T11:17:30Z</time>
      </trkpt>
      <trkpt lat="43.63776" lon="7.0185">
        <ele>179.85363769531</ele>
        <time>2012-06-11T11:17:34Z</time>
      </trkpt>
      <trkpt lat="43.63775" lon="7.0185">
        <ele>180.56056213379</ele>
        <time>2012-06-11T11:17:35Z</time>
      </trkpt>
      <trkpt lat="43.63774" lon="7.01846">
        <ele>181.46827697754</ele>
        <time>2012-06-11T11:17:39Z</time>
      </trkpt>
      <trkpt lat="43.63773" lon="7.01845">
        <ele>182.14834594727</ele>
        <time>2012-06-11T11:17:41Z</time>
      </trkpt>
      <trkpt lat="43.6377" lon="7.01843">
        <ele>183.73170471191</ele>
        <time>2012-06-11T11:17:45Z</time>
      </trkpt>
      <trkpt lat="43.63768" lon="7.01843">
        <ele>184.63807678223</ele>
        <time>2012-06-11T11:17:46Z</time>
      </trkpt>
      <trkpt lat="43.63766" lon="7.01841">
        <ele>185.74411010742</ele>
        <time>2012-06-11T11:17:49Z</time>
      </trkpt>
      <trkpt lat="43.63765" lon="7.01843">
        <ele>186.93812561035</ele>
        <time>2012-06-11T11:17:57Z</time>
      </trkpt>
      <trkpt lat="43.63765" lon="7.01846">
        <ele>187.03932189941</ele>
        <time>2012-06-11T11:18:01Z</time>
      </trkpt>
      <trkpt lat="43.63762" lon="7.01853">
        <ele>188.70272827148</ele>
        <time>2012-06-11T11:18:13Z</time>
      </trkpt>
      <trkpt lat="43.63758" lon="7.01857">
        <ele>191.28721618652</ele>
        <time>2012-06-11T11:18:19Z</time>
      </trkpt>
      <trkpt lat="43.63755" lon="7.01859">
        <ele>193.61245727539</ele>
        <time>2012-06-11T11:18:23Z</time>
      </trkpt>
      <trkpt lat="43.63755" lon="7.01859">
        <ele>193.86613464356</ele>
        <time>2012-06-11T11:18:24Z</time>
      </trkpt>
      <trkpt lat="43.63749" lon="7.01861">
        <ele>197.68864440918</ele>
        <time>2012-06-11T11:18:33Z</time>
      </trkpt>
      <trkpt lat="43.63744" lon="7.01865">
        <ele>200.01016235352</ele>
        <time>2012-06-11T11:18:42Z</time>
      </trkpt>
      <trkpt lat="43.63739" lon="7.0187">
        <ele>202.57919311523</ele>
        <time>2012-06-11T11:18:48Z</time>
      </trkpt>
      <trkpt lat="43.63736" lon="7.01874">
        <ele>204.27961730957</ele>
        <time>2012-06-11T11:18:53Z</time>
      </trkpt>
      <trkpt lat="43.63735" lon="7.01875">
        <ele>204.69961547852</ele>
        <time>2012-06-11T11:18:55Z</time>
      </trkpt>
      <trkpt lat="43.63732" lon="7.01876">
        <ele>206.40278625488</ele>
        <time>2012-06-11T11:18:59Z</time>
      </trkpt>
      <trkpt lat="43.63729" lon="7.01877">
        <ele>207.61569213867</ele>
        <time>2012-06-11T11:19:02Z</time>
      </trkpt>
      <trkpt lat="43.63726" lon="7.0188">
        <ele>209.49252319336</ele>
        <time>2012-06-11T11:19:06Z</time>
      </trkpt>
      <trkpt lat="43.63725" lon="7.0188">
        <ele>210.0368347168</ele>
        <time>2012-06-11T11:19:07Z</time>
      </trkpt>
      <trkpt lat="43.63717" lon="7.0188">
        <ele>213.03994750977</ele>
        <time>2012-06-11T11:19:13Z</time>
      </trkpt>
      <trkpt lat="43.63715" lon="7.0188">
        <ele>213.51831054688</ele>
        <time>2012-06-11T11:19:14Z</time>
      </trkpt>
      <trkpt lat="43.63705" lon="7.01883">
        <ele>216.78457641602</ele>
        <time>2012-06-11T11:19:22Z</time>
      </trkpt>
      <trkpt lat="43.63704" lon="7.01882">
        <ele>217.10067749023</ele>
        <time>2012-06-11T11:19:32Z</time>
      </trkpt>
      <trkpt lat="43.637" lon="7.01887">
        <ele>218.45593261719</ele>
        <time>2012-06-11T11:19:41Z</time>
      </trkpt>
      <trkpt lat="43.63698" lon="7.01891">
        <ele>218.91943359375</ele>
        <time>2012-06-11T11:20:18Z</time>
      </trkpt>
      <trkpt lat="43.63698" lon="7.01894">
        <ele>218.91943359375</ele>
        <time>2012-06-11T11:21:05Z</time>
      </trkpt>
      <trkpt lat="43.63698" lon="7.01895">
        <ele>219.029296875</ele>
        <time>2012-06-11T11:21:13Z</time>
      </trkpt>
      <trkpt lat="43.63695" lon="7.01894">
        <ele>219.79833984375</ele>
        <time>2012-06-11T11:21:45Z</time>
      </trkpt>
      <trkpt lat="43.63694" lon="7.01899">
        <ele>220.19189453125</ele>
        <time>2012-06-11T11:21:50Z</time>
      </trkpt>
      <trkpt lat="43.63695" lon="7.01906">
        <ele>219.79833984375</ele>
        <time>2012-06-11T11:21:55Z</time>
      </trkpt>
      <trkpt lat="43.63696" lon="7.0191">
        <ele>219.6884765625</ele>
        <time>2012-06-11T11:21:56Z</time>
      </trkpt>
      <trkpt lat="43.637" lon="7.0192">
        <ele>218.42240905762</ele>
        <time>2012-06-11T11:22:00Z</time>
      </trkpt>
      <trkpt lat="43.637" lon="7.01924">
        <ele>218.67921447754</ele>
        <time>2012-06-11T11:22:01Z</time>
      </trkpt>
      <trkpt lat="43.637" lon="7.01933">
        <ele>218.96160888672</ele>
        <time>2012-06-11T11:22:04Z</time>
      </trkpt>
      <trkpt lat="43.637" lon="7.01933">
        <ele>219.08628845215</ele>
        <time>2012-06-11T11:22:05Z</time>
      </trkpt>
      <trkpt lat="43.637" lon="7.01934">
        <ele>219.22270202637</ele>
        <time>2012-06-11T11:22:08Z</time>
      </trkpt>
      <trkpt lat="43.63702" lon="7.01937">
        <ele>218.85237121582</ele>
        <time>2012-06-11T11:22:14Z</time>
      </trkpt>
      <trkpt lat="43.63704" lon="7.01933">
        <ele>218.07165527344</ele>
        <time>2012-06-11T11:22:19Z</time>
      </trkpt>
      <trkpt lat="43.63703" lon="7.01932">
        <ele>218.32757568359</ele>
        <time>2012-06-11T11:22:23Z</time>
      </trkpt>
      <trkpt lat="43.63702" lon="7.01926">
        <ele>218.26547241211</ele>
        <time>2012-06-11T11:22:30Z</time>
      </trkpt>
      <trkpt lat="43.63701" lon="7.01925">
        <ele>218.51937866211</ele>
        <time>2012-06-11T11:22:33Z</time>
      </trkpt>
      <trkpt lat="43.63695" lon="7.01927">
        <ele>220.18127441406</ele>
        <time>2012-06-11T11:22:41Z</time>
      </trkpt>
      <trkpt lat="43.63691" lon="7.01931">
        <ele>222.01080322266</ele>
        <time>2012-06-11T11:22:45Z</time>
      </trkpt>
      <trkpt lat="43.63689" lon="7.01935">
        <ele>223.16436767578</ele>
        <time>2012-06-11T11:22:48Z</time>
      </trkpt>
      <trkpt lat="43.63688" lon="7.01937">
        <ele>223.57806396484</ele>
        <time>2012-06-11T11:22:49Z</time>
      </trkpt>
      <trkpt lat="43.63686" lon="7.0194">
        <ele>224.49301147461</ele>
        <time>2012-06-11T11:22:51Z</time>
      </trkpt>
      <trkpt lat="43.63684" lon="7.01944">
        <ele>225.46633911133</ele>
        <time>2012-06-11T11:22:53Z</time>
      </trkpt>
      <trkpt lat="43.6368" lon="7.01954">
        <ele>227.12451171875</ele>
        <time>2012-06-11T11:22:57Z</time>
      </trkpt>
      <trkpt lat="43.63679" lon="7.01956">
        <ele>227.78369140625</ele>
        <time>2012-06-11T11:22:58Z</time>
      </trkpt>
      <trkpt lat="43.63674" lon="7.0197">
        <ele>229.76123046875</ele>
        <time>2012-06-11T11:23:03Z</time>
      </trkpt>
      <trkpt lat="43.63678" lon="7.01984">
        <ele>228.1280670166</ele>
        <time>2012-06-11T11:23:07Z</time>
      </trkpt>
      <trkpt lat="43.63678" lon="7.01989">
        <ele>228.35830688477</ele>
        <time>2012-06-11T11:23:08Z</time>
      </trkpt>
      <trkpt lat="43.63679" lon="7.02013">
        <ele>228.26974487305</ele>
        <time>2012-06-11T11:23:12Z</time>
      </trkpt>
      <trkpt lat="43.63684" lon="7.02044">
        <ele>227.09683227539</ele>
        <time>2012-06-11T11:23:17Z</time>
      </trkpt>
      <trkpt lat="43.63686" lon="7.02061">
        <ele>226.98930358887</ele>
        <time>2012-06-11T11:23:19Z</time>
      </trkpt>
      <trkpt lat="43.63684" lon="7.02079">
        <ele>227.78028869629</ele>
        <time>2012-06-11T11:23:21Z</time>
      </trkpt>
      <trkpt lat="43.63685" lon="7.02086">
        <ele>227.83354187012</ele>
        <time>2012-06-11T11:23:22Z</time>
      </trkpt>
      <trkpt lat="43.63689" lon="7.02105">
        <ele>227.18020629883</ele>
        <time>2012-06-11T11:23:25Z</time>
      </trkpt>
      <trkpt lat="43.63699" lon="7.02121">
        <ele>225.10717773438</ele>
        <time>2012-06-11T11:23:29Z</time>
      </trkpt>
      <trkpt lat="43.63701" lon="7.02124">
        <ele>224.53039550781</ele>
        <time>2012-06-11T11:23:30Z</time>
      </trkpt>
      <trkpt lat="43.63706" lon="7.02129">
        <ele>223.45922851562</ele>
        <time>2012-06-11T11:23:32Z</time>
      </trkpt>
      <trkpt lat="43.63717" lon="7.02139">
        <ele>221.23300170898</ele>
        <time>2012-06-11T11:23:35Z</time>
      </trkpt>
      <trkpt lat="43.63725" lon="7.0215">
        <ele>218.76037597656</ele>
        <time>2012-06-11T11:23:39Z</time>
      </trkpt>
      <trkpt lat="43.63734" lon="7.02167">
        <ele>213.82269287109</ele>
        <time>2012-06-11T11:23:44Z</time>
      </trkpt>
      <trkpt lat="43.6375" lon="7.0219">
        <ele>205.98262023926</ele>
        <time>2012-06-11T11:23:49Z</time>
      </trkpt>
      <trkpt lat="43.63761" lon="7.02199">
        <ele>201.35278320312</ele>
        <time>2012-06-11T11:23:53Z</time>
      </trkpt>
      <trkpt lat="43.63776" lon="7.02207">
        <ele>194.76098632812</ele>
        <time>2012-06-11T11:23:58Z</time>
      </trkpt>
      <trkpt lat="43.63792" lon="7.02224">
        <ele>190.57916259766</ele>
        <time>2012-06-11T11:24:02Z</time>
      </trkpt>
      <trkpt lat="43.63802" lon="7.02239">
        <ele>188.60848999023</ele>
        <time>2012-06-11T11:24:05Z</time>
      </trkpt>
      <trkpt lat="43.63808" lon="7.02249">
        <ele>187.33143615723</ele>
        <time>2012-06-11T11:24:07Z</time>
      </trkpt>
      <trkpt lat="43.63809" lon="7.0225">
        <ele>186.94921875</ele>
        <time>2012-06-11T11:24:10Z</time>
      </trkpt>
      <trkpt lat="43.63815" lon="7.02248">
        <ele>185.28694152832</ele>
        <time>2012-06-11T11:24:17Z</time>
      </trkpt>
      <trkpt lat="43.63817" lon="7.02246">
        <ele>184.46603393555</ele>
        <time>2012-06-11T11:24:23Z</time>
      </trkpt>
      <trkpt lat="43.63819" lon="7.02241">
        <ele>183.5671081543</ele>
        <time>2012-06-11T11:24:25Z</time>
      </trkpt>
      <trkpt lat="43.63821" lon="7.02234">
        <ele>182.16555786133</ele>
        <time>2012-06-11T11:24:27Z</time>
      </trkpt>
      <trkpt lat="43.63824" lon="7.02228">
        <ele>180.96537780762</ele>
        <time>2012-06-11T11:24:29Z</time>
      </trkpt>
      <trkpt lat="43.63828" lon="7.02227">
        <ele>179.57598876953</ele>
        <time>2012-06-11T11:24:31Z</time>
      </trkpt>
      <trkpt lat="43.6383" lon="7.0223">
        <ele>178.88381958008</ele>
        <time>2012-06-11T11:24:33Z</time>
      </trkpt>
      <trkpt lat="43.63831" lon="7.02238">
        <ele>179.30787658691</ele>
        <time>2012-06-11T11:24:39Z</time>
      </trkpt>
      <trkpt lat="43.6383" lon="7.02243">
        <ele>180.37121582031</ele>
        <time>2012-06-11T11:24:43Z</time>
      </trkpt>
      <trkpt lat="43.63828" lon="7.0225">
        <ele>181.56591796875</ele>
        <time>2012-06-11T11:24:48Z</time>
      </trkpt>
      <trkpt lat="43.63826" lon="7.02259">
        <ele>182.115234375</ele>
        <time>2012-06-11T11:24:53Z</time>
      </trkpt>
      <trkpt lat="43.63825" lon="7.02263">
        <ele>182.44482421875</ele>
        <time>2012-06-11T11:24:55Z</time>
      </trkpt>
      <trkpt lat="43.63824" lon="7.0228">
        <ele>182.6135559082</ele>
        <time>2012-06-11T11:25:02Z</time>
      </trkpt>
      <trkpt lat="43.6382" lon="7.02305">
        <ele>183.24267578125</ele>
        <time>2012-06-11T11:25:11Z</time>
      </trkpt>
      <trkpt lat="43.63819" lon="7.02317">
        <ele>183.09693908691</ele>
        <time>2012-06-11T11:25:16Z</time>
      </trkpt>
      <trkpt lat="43.63818" lon="7.02321">
        <ele>183.11419677734</ele>
        <time>2012-06-11T11:25:18Z</time>
      </trkpt>
      <trkpt lat="43.63816" lon="7.02333">
        <ele>182.88816833496</ele>
        <time>2012-06-11T11:25:24Z</time>
      </trkpt>
      <trkpt lat="43.63816" lon="7.02335">
        <ele>182.78425598144</ele>
        <time>2012-06-11T11:25:25Z</time>
      </trkpt>
      <trkpt lat="43.63818" lon="7.0234">
        <ele>181.9778137207</ele>
        <time>2012-06-11T11:25:30Z</time>
      </trkpt>
      <trkpt lat="43.6383" lon="7.02348">
        <ele>178.06025695801</ele>
        <time>2012-06-11T11:25:47Z</time>
      </trkpt>
      <trkpt lat="43.63835" lon="7.02351">
        <ele>175.95401000977</ele>
        <time>2012-06-11T11:25:56Z</time>
      </trkpt>
      <trkpt lat="43.63826" lon="7.02345">
        <ele>179.28631591797</ele>
        <time>2012-06-11T11:25:59Z</time>
      </trkpt>
      <trkpt lat="43.63823" lon="7.0234">
        <ele>180.69320678711</ele>
        <time>2012-06-11T11:26:01Z</time>
      </trkpt>
      <trkpt lat="43.63822" lon="7.02336">
        <ele>181.17561340332</ele>
        <time>2012-06-11T11:26:03Z</time>
      </trkpt>
      <trkpt lat="43.63823" lon="7.02332">
        <ele>181.07327270508</ele>
        <time>2012-06-11T11:26:06Z</time>
      </trkpt>
      <trkpt lat="43.63823" lon="7.02331">
        <ele>180.99298095703</ele>
        <time>2012-06-11T11:26:08Z</time>
      </trkpt>
      <trkpt lat="43.63823" lon="7.02326">
        <ele>181.37287902832</ele>
        <time>2012-06-11T11:26:22Z</time>
      </trkpt>
      <trkpt lat="43.63826" lon="7.02321">
        <ele>180.67207336426</ele>
        <time>2012-06-11T11:26:25Z</time>
      </trkpt>
      <trkpt lat="43.63825" lon="7.02318">
        <ele>181.18341064453</ele>
        <time>2012-06-11T11:26:26Z</time>
      </trkpt>
      <trkpt lat="43.63823" lon="7.02314">
        <ele>182.09172058106</ele>
        <time>2012-06-11T11:26:29Z</time>
      </trkpt>
      <trkpt lat="43.6382" lon="7.02317">
        <ele>182.75593566894</ele>
        <time>2012-06-11T11:26:33Z</time>
      </trkpt>
      <trkpt lat="43.63819" lon="7.02319">
        <ele>182.98173522949</ele>
        <time>2012-06-11T11:26:34Z</time>
      </trkpt>
      <trkpt lat="43.63813" lon="7.02329">
        <ele>184.03128051758</ele>
        <time>2012-06-11T11:26:38Z</time>
      </trkpt>
      <trkpt lat="43.63802" lon="7.02337">
        <ele>186.72175598144</ele>
        <time>2012-06-11T11:26:45Z</time>
      </trkpt>
      <trkpt lat="43.63792" lon="7.02346">
        <ele>188.47270202637</ele>
        <time>2012-06-11T11:26:51Z</time>
      </trkpt>
      <trkpt lat="43.63791" lon="7.02351">
        <ele>188.60830688477</ele>
        <time>2012-06-11T11:26:56Z</time>
      </trkpt>
      <trkpt lat="43.63789" lon="7.02352">
        <ele>188.89842224121</ele>
        <time>2012-06-11T11:27:05Z</time>
      </trkpt>
      <trkpt lat="43.63786" lon="7.02346">
        <ele>189.69320678711</ele>
        <time>2012-06-11T11:27:24Z</time>
      </trkpt>
      <trkpt lat="43.63781" lon="7.02338">
        <ele>191.05792236328</ele>
        <time>2012-06-11T11:27:32Z</time>
      </trkpt>
      <trkpt lat="43.63777" lon="7.02335">
        <ele>192.17150878906</ele>
        <time>2012-06-11T11:27:38Z</time>
      </trkpt>
      <trkpt lat="43.63775" lon="7.02333">
        <ele>193.16229248047</ele>
        <time>2012-06-11T11:27:41Z</time>
      </trkpt>
      <trkpt lat="43.63773" lon="7.0233">
        <ele>194.00631713867</ele>
        <time>2012-06-11T11:27:45Z</time>
      </trkpt>
      <trkpt lat="43.63772" lon="7.02328">
        <ele>194.6796875</ele>
        <time>2012-06-11T11:27:46Z</time>
      </trkpt>
      <trkpt lat="43.63764" lon="7.02324">
        <ele>197.90321350098</ele>
        <time>2012-06-11T11:27:54Z</time>
      </trkpt>
      <trkpt lat="43.63759" lon="7.02323">
        <ele>199.99684143066</ele>
        <time>2012-06-11T11:28:02Z</time>
      </trkpt>
      <trkpt lat="43.63754" lon="7.02321">
        <ele>202.09658813477</ele>
        <time>2012-06-11T11:28:11Z</time>
      </trkpt>
      <trkpt lat="43.63747" lon="7.02318">
        <ele>204.79196166992</ele>
        <time>2012-06-11T11:28:18Z</time>
      </trkpt>
      <trkpt lat="43.63742" lon="7.02315">
        <ele>207.28999328613</ele>
        <time>2012-06-11T11:28:24Z</time>
      </trkpt>
      <trkpt lat="43.63742" lon="7.02315">
        <ele>207.64790344238</ele>
        <time>2012-06-11T11:28:25Z</time>
      </trkpt>
      <trkpt lat="43.6374" lon="7.02317">
        <ele>208.23001098633</ele>
        <time>2012-06-11T11:28:31Z</time>
      </trkpt>
      <trkpt lat="43.63734" lon="7.02318">
        <ele>211.27645874023</ele>
        <time>2012-06-11T11:28:36Z</time>
      </trkpt>
      <trkpt lat="43.63724" lon="7.02318">
        <ele>215.75294494629</ele>
        <time>2012-06-11T11:28:41Z</time>
      </trkpt>
      <trkpt lat="43.63723" lon="7.02317">
        <ele>216.21299743652</ele>
        <time>2012-06-11T11:28:42Z</time>
      </trkpt>
      <trkpt lat="43.63718" lon="7.02313">
        <ele>217.84826660156</ele>
        <time>2012-06-11T11:28:46Z</time>
      </trkpt>
      <trkpt lat="43.63718" lon="7.02312">
        <ele>218.00112915039</ele>
        <time>2012-06-11T11:28:47Z</time>
      </trkpt>
      <trkpt lat="43.63717" lon="7.02306">
        <ele>218.7741394043</ele>
        <time>2012-06-11T11:28:50Z</time>
      </trkpt>
      <trkpt lat="43.63718" lon="7.02299">
        <ele>219.0368347168</ele>
        <time>2012-06-11T11:28:54Z</time>
      </trkpt>
      <trkpt lat="43.63718" lon="7.02297">
        <ele>219.16877746582</ele>
        <time>2012-06-11T11:28:55Z</time>
      </trkpt>
      <trkpt lat="43.63715" lon="7.02289">
        <ele>219.89813232422</ele>
        <time>2012-06-11T11:28:59Z</time>
      </trkpt>
      <trkpt lat="43.63708" lon="7.02289">
        <ele>220.63993835449</ele>
        <time>2012-06-11T11:29:04Z</time>
      </trkpt>
      <trkpt lat="43.63701" lon="7.02289">
        <ele>221.35618591309</ele>
        <time>2012-06-11T11:29:10Z</time>
      </trkpt>
      <trkpt lat="43.63697" lon="7.02286">
        <ele>221.75761413574</ele>
        <time>2012-06-11T11:29:14Z</time>
      </trkpt>
      <trkpt lat="43.63696" lon="7.02286">
        <ele>221.89932250977</ele>
        <time>2012-06-11T11:29:16Z</time>
      </trkpt>
      <trkpt lat="43.63692" lon="7.02285">
        <ele>222.19395446777</ele>
        <time>2012-06-11T11:29:21Z</time>
      </trkpt>
      <trkpt lat="43.63683" lon="7.02282">
        <ele>223.18547058106</ele>
        <time>2012-06-11T11:29:27Z</time>
      </trkpt>
      <trkpt lat="43.63672" lon="7.02279">
        <ele>224.41583251953</ele>
        <time>2012-06-11T11:29:33Z</time>
      </trkpt>
      <trkpt lat="43.63662" lon="7.02281">
        <ele>225.37507629394</ele>
        <time>2012-06-11T11:29:37Z</time>
      </trkpt>
      <trkpt lat="43.63657" lon="7.02274">
        <ele>226.31346130371</ele>
        <time>2012-06-11T11:29:41Z</time>
      </trkpt>
      <trkpt lat="43.63656" lon="7.02264">
        <ele>227.35917663574</ele>
        <time>2012-06-11T11:29:45Z</time>
      </trkpt>
      <trkpt lat="43.63656" lon="7.02261">
        <ele>227.56394958496</ele>
        <time>2012-06-11T11:29:46Z</time>
      </trkpt>
      <trkpt lat="43.63655" lon="7.02248">
        <ele>228.71101379394</ele>
        <time>2012-06-11T11:29:50Z</time>
      </trkpt>
      <trkpt lat="43.63654" lon="7.02238">
        <ele>229.62268066406</ele>
        <time>2012-06-11T11:29:57Z</time>
      </trkpt>
      <trkpt lat="43.63652" lon="7.02235">
        <ele>230.27546691894</ele>
        <time>2012-06-11T11:30:03Z</time>
      </trkpt>
      <trkpt lat="43.63641" lon="7.02228">
        <ele>232.8484954834</ele>
        <time>2012-06-11T11:31:21Z</time>
      </trkpt>
      <trkpt lat="43.63639" lon="7.02216">
        <ele>234.4210357666</ele>
        <time>2012-06-11T11:31:27Z</time>
      </trkpt>
      <trkpt lat="43.63636" lon="7.02208">
        <ele>235.48260498047</ele>
        <time>2012-06-11T11:31:29Z</time>
      </trkpt>
      <trkpt lat="43.63631" lon="7.02205">
        <ele>236.30314636231</ele>
        <time>2012-06-11T11:31:30Z</time>
      </trkpt>
      <trkpt lat="43.63616" lon="7.02192">
        <ele>239.45774841309</ele>
        <time>2012-06-11T11:31:35Z</time>
      </trkpt>
      <trkpt lat="43.63612" lon="7.02184">
        <ele>240.26623535156</ele>
        <time>2012-06-11T11:31:39Z</time>
      </trkpt>
      <trkpt lat="43.63607" lon="7.02181">
        <ele>240.62747192383</ele>
        <time>2012-06-11T11:31:45Z</time>
      </trkpt>
      <trkpt lat="43.63609" lon="7.02178">
        <ele>240.69268798828</ele>
        <time>2012-06-11T11:31:56Z</time>
      </trkpt>
      <trkpt lat="43.63611" lon="7.02176">
        <ele>240.66036987305</ele>
        <time>2012-06-11T11:31:58Z</time>
      </trkpt>
      <trkpt lat="43.63613" lon="7.0217">
        <ele>240.7311706543</ele>
        <time>2012-06-11T11:32:00Z</time>
      </trkpt>
      <trkpt lat="43.63607" lon="7.02161">
        <ele>241.17697143555</ele>
        <time>2012-06-11T11:32:04Z</time>
      </trkpt>
      <trkpt lat="43.63604" lon="7.02159">
        <ele>241.32678222656</ele>
        <time>2012-06-11T11:32:06Z</time>
      </trkpt>
      <trkpt lat="43.63603" lon="7.02158">
        <ele>241.37684631348</ele>
        <time>2012-06-11T11:32:07Z</time>
      </trkpt>
      <trkpt lat="43.63602" lon="7.02155">
        <ele>241.486328125</ele>
        <time>2012-06-11T11:32:09Z</time>
      </trkpt>
      <trkpt lat="43.63599" lon="7.02146">
        <ele>241.78952026367</ele>
        <time>2012-06-11T11:32:14Z</time>
      </trkpt>
      <trkpt lat="43.63604" lon="7.02146">
        <ele>241.451171875</ele>
        <time>2012-06-11T11:32:21Z</time>
      </trkpt>
      <trkpt lat="43.63605" lon="7.02144">
        <ele>241.36651611328</ele>
        <time>2012-06-11T11:32:25Z</time>
      </trkpt>
      <trkpt lat="43.63604" lon="7.02142">
        <ele>241.51152038574</ele>
        <time>2012-06-11T11:32:27Z</time>
      </trkpt>
      <trkpt lat="43.63601" lon="7.02139">
        <ele>241.72970581055</ele>
        <time>2012-06-11T11:32:30Z</time>
      </trkpt>
      <trkpt lat="43.63599" lon="7.02139">
        <ele>241.84838867188</ele>
        <time>2012-06-11T11:32:31Z</time>
      </trkpt>
      <trkpt lat="43.63594" lon="7.02135">
        <ele>242.31103515625</ele>
        <time>2012-06-11T11:32:37Z</time>
      </trkpt>
      <trkpt lat="43.63594" lon="7.02135">
        <ele>242.33819580078</ele>
        <time>2012-06-11T11:32:38Z</time>
      </trkpt>
      <trkpt lat="43.63588" lon="7.0213">
        <ele>242.92617797852</ele>
        <time>2012-06-11T11:32:44Z</time>
      </trkpt>
      <trkpt lat="43.63585" lon="7.02128">
        <ele>243.23924255371</ele>
        <time>2012-06-11T11:32:49Z</time>
      </trkpt>
      <trkpt lat="43.63583" lon="7.02121">
        <ele>243.65704345703</ele>
        <time>2012-06-11T11:33:03Z</time>
      </trkpt>
      <trkpt lat="43.63588" lon="7.02103">
        <ele>243.73480224609</ele>
        <time>2012-06-11T11:33:08Z</time>
      </trkpt>
      <trkpt lat="43.63597" lon="7.02082">
        <ele>242.99169921875</ele>
        <time>2012-06-11T11:33:12Z</time>
      </trkpt>
      <trkpt lat="43.63599" lon="7.02077">
        <ele>242.77655029297</ele>
        <time>2012-06-11T11:33:15Z</time>
      </trkpt>
      <trkpt lat="43.63599" lon="7.02068">
        <ele>242.9206237793</ele>
        <time>2012-06-11T11:33:21Z</time>
      </trkpt>
      <trkpt lat="43.63601" lon="7.02062">
        <ele>242.68792724609</ele>
        <time>2012-06-11T11:33:25Z</time>
      </trkpt>
      <trkpt lat="43.63602" lon="7.02058">
        <ele>242.53167724609</ele>
        <time>2012-06-11T11:33:28Z</time>
      </trkpt>
      <trkpt lat="43.63604" lon="7.02051">
        <ele>242.40229797363</ele>
        <time>2012-06-11T11:33:32Z</time>
      </trkpt>
      <trkpt lat="43.63601" lon="7.02035">
        <ele>243.35908508301</ele>
        <time>2012-06-11T11:33:38Z</time>
      </trkpt>
      <trkpt lat="43.63599" lon="7.02032">
        <ele>243.60122680664</ele>
        <time>2012-06-11T11:33:40Z</time>
      </trkpt>
      <trkpt lat="43.63599" lon="7.02026">
        <ele>243.83203125</ele>
        <time>2012-06-11T11:33:44Z</time>
      </trkpt>
      <trkpt lat="43.63594" lon="7.02015">
        <ele>244.74125671387</ele>
        <time>2012-06-11T11:33:50Z</time>
      </trkpt>
      <trkpt lat="43.63584" lon="7.02002">
        <ele>246.85137939453</ele>
        <time>2012-06-11T11:33:56Z</time>
      </trkpt>
      <trkpt lat="43.63576" lon="7.01986">
        <ele>247.79339599609</ele>
        <time>2012-06-11T11:34:03Z</time>
      </trkpt>
      <trkpt lat="43.63576" lon="7.01969">
        <ele>248.35797119141</ele>
        <time>2012-06-11T11:34:08Z</time>
      </trkpt>
      <trkpt lat="43.63583" lon="7.01944">
        <ele>248.99824523926</ele>
        <time>2012-06-11T11:34:14Z</time>
      </trkpt>
      <trkpt lat="43.63586" lon="7.0192">
        <ele>249.00169372559</ele>
        <time>2012-06-11T11:34:19Z</time>
      </trkpt>
      <trkpt lat="43.6359" lon="7.0191">
        <ele>248.0107421875</ele>
        <time>2012-06-11T11:34:24Z</time>
      </trkpt>
      <trkpt lat="43.636" lon="7.0191">
        <ele>245.154296875</ele>
        <time>2012-06-11T11:34:29Z</time>
      </trkpt>
      <trkpt lat="43.63613" lon="7.01915">
        <ele>241.85473632812</ele>
        <time>2012-06-11T11:34:33Z</time>
      </trkpt>
      <trkpt lat="43.6363" lon="7.01929">
        <ele>240.61877441406</ele>
        <time>2012-06-11T11:34:39Z</time>
      </trkpt>
      <trkpt lat="43.63642" lon="7.01951">
        <ele>239.28179931641</ele>
        <time>2012-06-11T11:34:43Z</time>
      </trkpt>
      <trkpt lat="43.6365" lon="7.01965">
        <ele>237.16693115234</ele>
        <time>2012-06-11T11:34:46Z</time>
      </trkpt>
      <trkpt lat="43.63652" lon="7.01969">
        <ele>236.78240966797</ele>
        <time>2012-06-11T11:34:47Z</time>
      </trkpt>
      <trkpt lat="43.63659" lon="7.0198">
        <ele>235.05206298828</ele>
        <time>2012-06-11T11:34:50Z</time>
      </trkpt>
      <trkpt lat="43.63668" lon="7.01977">
        <ele>232.40686035156</ele>
        <time>2012-06-11T11:34:53Z</time>
      </trkpt>
      <trkpt lat="43.63678" lon="7.01985">
        <ele>228.46147155762</ele>
        <time>2012-06-11T11:34:56Z</time>
      </trkpt>
      <trkpt lat="43.63681" lon="7.02009">
        <ele>227.33039855957</ele>
        <time>2012-06-11T11:35:00Z</time>
      </trkpt>
      <trkpt lat="43.63688" lon="7.02039">
        <ele>225.52624511719</ele>
        <time>2012-06-11T11:35:04Z</time>
      </trkpt>
      <trkpt lat="43.63693" lon="7.02054">
        <ele>224.33836364746</ele>
        <time>2012-06-11T11:35:06Z</time>
      </trkpt>
      <trkpt lat="43.63696" lon="7.02072">
        <ele>224.365234375</ele>
        <time>2012-06-11T11:35:08Z</time>
      </trkpt>
      <trkpt lat="43.63694" lon="7.02079">
        <ele>225.07511901856</ele>
        <time>2012-06-11T11:35:09Z</time>
      </trkpt>
      <trkpt lat="43.63694" lon="7.02104">
        <ele>225.87004089356</ele>
        <time>2012-06-11T11:35:13Z</time>
      </trkpt>
      <trkpt lat="43.63702" lon="7.02122">
        <ele>224.44799804688</ele>
        <time>2012-06-11T11:35:17Z</time>
      </trkpt>
      <trkpt lat="43.63711" lon="7.02133">
        <ele>222.47045898438</ele>
        <time>2012-06-11T11:35:20Z</time>
      </trkpt>
      <trkpt lat="43.63714" lon="7.02136">
        <ele>221.72888183594</ele>
        <time>2012-06-11T11:35:21Z</time>
      </trkpt>
      <trkpt lat="43.63723" lon="7.02146">
        <ele>219.37835693359</ele>
        <time>2012-06-11T11:35:25Z</time>
      </trkpt>
      <trkpt lat="43.63733" lon="7.02164">
        <ele>214.43450927734</ele>
        <time>2012-06-11T11:35:31Z</time>
      </trkpt>
      <trkpt lat="43.63734" lon="7.02167">
        <ele>213.41563415527</ele>
        <time>2012-06-11T11:35:32Z</time>
      </trkpt>
      <trkpt lat="43.63741" lon="7.02179">
        <ele>209.99226379394</ele>
        <time>2012-06-11T11:35:35Z</time>
      </trkpt>
      <trkpt lat="43.63753" lon="7.02196">
        <ele>204.64868164062</ele>
        <time>2012-06-11T11:35:39Z</time>
      </trkpt>
      <trkpt lat="43.63768" lon="7.02206">
        <ele>198.2216796875</ele>
        <time>2012-06-11T11:35:43Z</time>
      </trkpt>
      <trkpt lat="43.63781" lon="7.02218">
        <ele>193.09808349609</ele>
        <time>2012-06-11T11:35:47Z</time>
      </trkpt>
      <trkpt lat="43.63785" lon="7.02222">
        <ele>192.13677978516</ele>
        <time>2012-06-11T11:35:48Z</time>
      </trkpt>
      <trkpt lat="43.638" lon="7.02244">
        <ele>189.06510925293</ele>
        <time>2012-06-11T11:35:52Z</time>
      </trkpt>
      <trkpt lat="43.63803" lon="7.02247">
        <ele>188.5089263916</ele>
        <time>2012-06-11T11:35:53Z</time>
      </trkpt>
      <trkpt lat="43.63811" lon="7.0225">
        <ele>186.509765625</ele>
        <time>2012-06-11T11:35:56Z</time>
      </trkpt>
      <trkpt lat="43.63813" lon="7.02251">
        <ele>185.8505859375</ele>
        <time>2012-06-11T11:35:58Z</time>
      </trkpt>
      <trkpt lat="43.63814" lon="7.02251">
        <ele>185.52099609375</ele>
        <time>2012-06-11T11:36:00Z</time>
      </trkpt>
      <trkpt lat="43.63813" lon="7.0225">
        <ele>185.8505859375</ele>
        <time>2012-06-11T11:36:40Z</time>
      </trkpt>
      <trkpt lat="43.6381" lon="7.0225">
        <ele>186.7294921875</ele>
        <time>2012-06-11T11:36:42Z</time>
      </trkpt>
      <trkpt lat="43.63808" lon="7.02252">
        <ele>187.388671875</ele>
        <time>2012-06-11T11:36:45Z</time>
      </trkpt>
      <trkpt lat="43.63807" lon="7.02253">
        <ele>187.49853515625</ele>
        <time>2012-06-11T11:36:46Z</time>
      </trkpt>
      <trkpt lat="43.63809" lon="7.02254">
        <ele>187.05908203125</ele>
        <time>2012-06-11T11:36:47Z</time>
      </trkpt>
      <trkpt lat="43.63813" lon="7.02262">
        <ele>185.8505859375</ele>
        <time>2012-06-11T11:36:49Z</time>
      </trkpt>
      <trkpt lat="43.63823" lon="7.02282">
        <ele>182.78379821777</ele>
        <time>2012-06-11T11:36:53Z</time>
      </trkpt>
      <trkpt lat="43.63823" lon="7.02293">
        <ele>182.65412902832</ele>
        <time>2012-06-11T11:36:55Z</time>
      </trkpt>
      <trkpt lat="43.63822" lon="7.02303">
        <ele>182.67106628418</ele>
        <time>2012-06-11T11:36:57Z</time>
      </trkpt>
      <trkpt lat="43.63817" lon="7.02327">
        <ele>183.09822082519</ele>
        <time>2012-06-11T11:37:03Z</time>
      </trkpt>
      <trkpt lat="43.63812" lon="7.02356">
        <ele>183.07005310059</ele>
        <time>2012-06-11T11:37:09Z</time>
      </trkpt>
      <trkpt lat="43.63803" lon="7.02388">
        <ele>184.56283569336</ele>
        <time>2012-06-11T11:37:14Z</time>
      </trkpt>
      <trkpt lat="43.63786" lon="7.02424">
        <ele>185.78465270996</ele>
        <time>2012-06-11T11:37:20Z</time>
      </trkpt>
      <trkpt lat="43.63783" lon="7.0243">
        <ele>185.94291687012</ele>
        <time>2012-06-11T11:37:21Z</time>
      </trkpt>
      <trkpt lat="43.6378" lon="7.02435">
        <ele>186.23709106445</ele>
        <time>2012-06-11T11:37:22Z</time>
      </trkpt>
      <trkpt lat="43.63766" lon="7.02462">
        <ele>190.91368103027</ele>
        <time>2012-06-11T11:37:27Z</time>
      </trkpt>
      <trkpt lat="43.63757" lon="7.02481">
        <ele>192.86068725586</ele>
        <time>2012-06-11T11:37:32Z</time>
      </trkpt>
      <trkpt lat="43.6375" lon="7.02489">
        <ele>194.71896362305</ele>
        <time>2012-06-11T11:37:37Z</time>
      </trkpt>
      <trkpt lat="43.63747" lon="7.02491">
        <ele>194.91981506348</ele>
        <time>2012-06-11T11:37:40Z</time>
      </trkpt>
      <trkpt lat="43.63747" lon="7.02492">
        <ele>194.75215148926</ele>
        <time>2012-06-11T11:37:43Z</time>
      </trkpt>
      <trkpt lat="43.63745" lon="7.02489">
        <ele>195.81013488769</ele>
        <time>2012-06-11T11:38:03Z</time>
      </trkpt>
      <trkpt lat="43.63739" lon="7.02494">
        <ele>196.57170104981</ele>
        <time>2012-06-11T11:38:06Z</time>
      </trkpt>
      <trkpt lat="43.63721" lon="7.02507">
        <ele>199.88648986816</ele>
        <time>2012-06-11T11:38:11Z</time>
      </trkpt>
      <trkpt lat="43.63701" lon="7.02528">
        <ele>201.25955200195</ele>
        <time>2012-06-11T11:38:15Z</time>
      </trkpt>
      <trkpt lat="43.6369" lon="7.02538">
        <ele>200.09602355957</ele>
        <time>2012-06-11T11:38:17Z</time>
      </trkpt>
      <trkpt lat="43.63673" lon="7.02558">
        <ele>195.76191711426</ele>
        <time>2012-06-11T11:38:20Z</time>
      </trkpt>
      <trkpt lat="43.63639" lon="7.02588">
        <ele>178.63075256348</ele>
        <time>2012-06-11T11:38:25Z</time>
      </trkpt>
      <trkpt lat="43.63622" lon="7.02607">
        <ele>176.02101135254</ele>
        <time>2012-06-11T11:38:29Z</time>
      </trkpt>
      <trkpt lat="43.63621" lon="7.02617">
        <ele>174.97615051269</ele>
        <time>2012-06-11T11:38:32Z</time>
      </trkpt>
      <trkpt lat="43.63621" lon="7.02622">
        <ele>174.38333129883</ele>
        <time>2012-06-11T11:38:33Z</time>
      </trkpt>
      <trkpt lat="43.63621" lon="7.02629">
        <ele>173.54539489746</ele>
        <time>2012-06-11T11:38:35Z</time>
      </trkpt>
      <trkpt lat="43.63618" lon="7.0264">
        <ele>172.14552307129</ele>
        <time>2012-06-11T11:38:38Z</time>
      </trkpt>
      <trkpt lat="43.63614" lon="7.02658">
        <ele>170.56704711914</ele>
        <time>2012-06-11T11:38:42Z</time>
      </trkpt>
      <trkpt lat="43.63607" lon="7.02679">
        <ele>169.50727844238</ele>
        <time>2012-06-11T11:38:47Z</time>
      </trkpt>
      <trkpt lat="43.63593" lon="7.02697">
        <ele>169.79060363769</ele>
        <time>2012-06-11T11:38:52Z</time>
      </trkpt>
      <trkpt lat="43.63583" lon="7.02719">
        <ele>170.14836120606</ele>
        <time>2012-06-11T11:38:59Z</time>
      </trkpt>
      <trkpt lat="43.63573" lon="7.02735">
        <ele>170.81370544434</ele>
        <time>2012-06-11T11:39:05Z</time>
      </trkpt>
      <trkpt lat="43.63557" lon="7.0275">
        <ele>172.64758300781</ele>
        <time>2012-06-11T11:39:12Z</time>
      </trkpt>
      <trkpt lat="43.6354" lon="7.02766">
        <ele>175.72650146484</ele>
        <time>2012-06-11T11:39:18Z</time>
      </trkpt>
      <trkpt lat="43.63519" lon="7.0278">
        <ele>179.19213867188</ele>
        <time>2012-06-11T11:39:24Z</time>
      </trkpt>
      <trkpt lat="43.63494" lon="7.028">
        <ele>182.54469299316</ele>
        <time>2012-06-11T11:39:31Z</time>
      </trkpt>
      <trkpt lat="43.63495" lon="7.02817">
        <ele>181.84823608398</ele>
        <time>2012-06-11T11:39:34Z</time>
      </trkpt>
      <trkpt lat="43.63499" lon="7.02829">
        <ele>180.40794372559</ele>
        <time>2012-06-11T11:39:36Z</time>
      </trkpt>
      <trkpt lat="43.63501" lon="7.02834">
        <ele>179.91343688965</ele>
        <time>2012-06-11T11:39:37Z</time>
      </trkpt>
      <trkpt lat="43.63504" lon="7.02845">
        <ele>179.30102539062</ele>
        <time>2012-06-11T11:39:39Z</time>
      </trkpt>
      <trkpt lat="43.63519" lon="7.0288">
        <ele>176.05137634277</ele>
        <time>2012-06-11T11:39:46Z</time>
      </trkpt>
      <trkpt lat="43.63525" lon="7.02908">
        <ele>174.68041992188</ele>
        <time>2012-06-11T11:39:51Z</time>
      </trkpt>
      <trkpt lat="43.63524" lon="7.02919">
        <ele>174.70115661621</ele>
        <time>2012-06-11T11:39:53Z</time>
      </trkpt>
      <trkpt lat="43.63522" lon="7.02967">
        <ele>176.18771362305</ele>
        <time>2012-06-11T11:40:01Z</time>
      </trkpt>
      <trkpt lat="43.6352" lon="7.02998">
        <ele>178.25157165527</ele>
        <time>2012-06-11T11:40:06Z</time>
      </trkpt>
      <trkpt lat="43.6352" lon="7.03011">
        <ele>178.66291809082</ele>
        <time>2012-06-11T11:40:08Z</time>
      </trkpt>
      <trkpt lat="43.63522" lon="7.03053">
        <ele>179.44161987305</ele>
        <time>2012-06-11T11:40:15Z</time>
      </trkpt>
      <trkpt lat="43.63521" lon="7.0311">
        <ele>179.77214050293</ele>
        <time>2012-06-11T11:40:24Z</time>
      </trkpt>
      <trkpt lat="43.63516" lon="7.03166">
        <ele>179.01174926758</ele>
        <time>2012-06-11T11:40:33Z</time>
      </trkpt>
      <trkpt lat="43.63509" lon="7.03209">
        <ele>180.11080932617</ele>
        <time>2012-06-11T11:40:40Z</time>
      </trkpt>
      <trkpt lat="43.63497" lon="7.03244">
        <ele>184.02496337891</ele>
        <time>2012-06-11T11:40:46Z</time>
      </trkpt>
      <trkpt lat="43.63494" lon="7.03249">
        <ele>184.60174560547</ele>
        <time>2012-06-11T11:40:47Z</time>
      </trkpt>
      <trkpt lat="43.6347" lon="7.03282">
        <ele>188.93154907227</ele>
        <time>2012-06-11T11:40:54Z</time>
      </trkpt>
      <trkpt lat="43.63466" lon="7.03285">
        <ele>190.94514465332</ele>
        <time>2012-06-11T11:40:55Z</time>
      </trkpt>
      <trkpt lat="43.63451" lon="7.03295">
        <ele>198.08798217773</ele>
        <time>2012-06-11T11:40:58Z</time>
      </trkpt>
      <trkpt lat="43.63446" lon="7.03299">
        <ele>200.24575805664</ele>
        <time>2012-06-11T11:40:59Z</time>
      </trkpt>
      <trkpt lat="43.63428" lon="7.03314">
        <ele>206.07913208008</ele>
        <time>2012-06-11T11:41:03Z</time>
      </trkpt>
      <trkpt lat="43.6342" lon="7.03321">
        <ele>208.40362548828</ele>
        <time>2012-06-11T11:41:05Z</time>
      </trkpt>
      <trkpt lat="43.63406" lon="7.03332">
        <ele>210.30969238281</ele>
        <time>2012-06-11T11:41:08Z</time>
      </trkpt>
      <trkpt lat="43.63392" lon="7.03341">
        <ele>212.70608520508</ele>
        <time>2012-06-11T11:41:11Z</time>
      </trkpt>
      <trkpt lat="43.63383" lon="7.03348">
        <ele>213.85528564453</ele>
        <time>2012-06-11T11:41:13Z</time>
      </trkpt>
      <trkpt lat="43.63366" lon="7.03362">
        <ele>215.24203491211</ele>
        <time>2012-06-11T11:41:17Z</time>
      </trkpt>
      <trkpt lat="43.63361" lon="7.03364">
        <ele>215.80778503418</ele>
        <time>2012-06-11T11:41:18Z</time>
      </trkpt>
      <trkpt lat="43.63326" lon="7.03372">
        <ele>216.48413085938</ele>
        <time>2012-06-11T11:41:24Z</time>
      </trkpt>
      <trkpt lat="43.63288" lon="7.03384">
        <ele>215.08135986328</ele>
        <time>2012-06-11T11:41:31Z</time>
      </trkpt>
      <trkpt lat="43.63259" lon="7.03397">
        <ele>210.37403869629</ele>
        <time>2012-06-11T11:41:37Z</time>
      </trkpt>
      <trkpt lat="43.6325" lon="7.03399">
        <ele>208.8542175293</ele>
        <time>2012-06-11T11:41:39Z</time>
      </trkpt>
      <trkpt lat="43.63239" lon="7.03402">
        <ele>207.38136291504</ele>
        <time>2012-06-11T11:41:42Z</time>
      </trkpt>
      <trkpt lat="43.63219" lon="7.03397">
        <ele>205.74549865723</ele>
        <time>2012-06-11T11:41:47Z</time>
      </trkpt>
      <trkpt lat="43.63205" lon="7.0338">
        <ele>205.1184387207</ele>
        <time>2012-06-11T11:41:52Z</time>
      </trkpt>
      <trkpt lat="43.63201" lon="7.03374">
        <ele>205.02917480469</ele>
        <time>2012-06-11T11:41:54Z</time>
      </trkpt>
      <trkpt lat="43.63198" lon="7.03367">
        <ele>205.09440612793</ele>
        <time>2012-06-11T11:41:57Z</time>
      </trkpt>
      <trkpt lat="43.63197" lon="7.03365">
        <ele>205.1184387207</ele>
        <time>2012-06-11T11:42:02Z</time>
      </trkpt>
      <trkpt lat="43.63193" lon="7.03355">
        <ele>205.33396911621</ele>
        <time>2012-06-11T11:42:39Z</time>
      </trkpt>
      <trkpt lat="43.63185" lon="7.0333">
        <ele>206.22660827637</ele>
        <time>2012-06-11T11:42:44Z</time>
      </trkpt>
      <trkpt lat="43.63177" lon="7.03288">
        <ele>207.95529174805</ele>
        <time>2012-06-11T11:42:51Z</time>
      </trkpt>
      <trkpt lat="43.63174" lon="7.03275">
        <ele>208.27700805664</ele>
        <time>2012-06-11T11:42:53Z</time>
      </trkpt>
      <trkpt lat="43.63169" lon="7.03255">
        <ele>208.94648742676</ele>
        <time>2012-06-11T11:42:57Z</time>
      </trkpt>
      <trkpt lat="43.63168" lon="7.0325">
        <ele>209.21084594727</ele>
        <time>2012-06-11T11:43:01Z</time>
      </trkpt>
      <trkpt lat="43.63167" lon="7.03238">
        <ele>209.87345886231</ele>
        <time>2012-06-11T11:43:06Z</time>
      </trkpt>
      <trkpt lat="43.63162" lon="7.03217">
        <ele>210.22033691406</ele>
        <time>2012-06-11T11:43:10Z</time>
      </trkpt>
      <trkpt lat="43.63145" lon="7.03189">
        <ele>207.4462890625</ele>
        <time>2012-06-11T11:43:14Z</time>
      </trkpt>
      <trkpt lat="43.63135" lon="7.03167">
        <ele>206.04931640625</ele>
        <time>2012-06-11T11:43:17Z</time>
      </trkpt>
      <trkpt lat="43.63131" lon="7.03152">
        <ele>204.90350341797</ele>
        <time>2012-06-11T11:43:19Z</time>
      </trkpt>
      <trkpt lat="43.63129" lon="7.03144">
        <ele>204.51898193359</ele>
        <time>2012-06-11T11:43:20Z</time>
      </trkpt>
      <trkpt lat="43.63128" lon="7.0312">
        <ele>204.32672119141</ele>
        <time>2012-06-11T11:43:23Z</time>
      </trkpt>
      <trkpt lat="43.63129" lon="7.03105">
        <ele>204.61511230469</ele>
        <time>2012-06-11T11:43:25Z</time>
      </trkpt>
      <trkpt lat="43.63127" lon="7.03077">
        <ele>203.94219970703</ele>
        <time>2012-06-11T11:43:29Z</time>
      </trkpt>
      <trkpt lat="43.63114" lon="7.0303">
        <ele>200.67376708984</ele>
        <time>2012-06-11T11:43:35Z</time>
      </trkpt>
      <trkpt lat="43.63107" lon="7.02974">
        <ele>196.87783813477</ele>
        <time>2012-06-11T11:43:41Z</time>
      </trkpt>
      <trkpt lat="43.63104" lon="7.02964">
        <ele>195.17877197266</ele>
        <time>2012-06-11T11:43:42Z</time>
      </trkpt>
      <trkpt lat="43.63097" lon="7.02945">
        <ele>190.88552856445</ele>
        <time>2012-06-11T11:43:44Z</time>
      </trkpt>
      <trkpt lat="43.6309" lon="7.02925">
        <ele>186.66096496582</ele>
        <time>2012-06-11T11:43:46Z</time>
      </trkpt>
      <trkpt lat="43.63086" lon="7.02894">
        <ele>182.94566345215</ele>
        <time>2012-06-11T11:43:49Z</time>
      </trkpt>
      <trkpt lat="43.63086" lon="7.02874">
        <ele>181.41455078125</ele>
        <time>2012-06-11T11:43:51Z</time>
      </trkpt>
      <trkpt lat="43.63089" lon="7.02851">
        <ele>179.40492248535</ele>
        <time>2012-06-11T11:43:53Z</time>
      </trkpt>
      <trkpt lat="43.63095" lon="7.02812">
        <ele>174.84992980957</ele>
        <time>2012-06-11T11:43:57Z</time>
      </trkpt>
      <trkpt lat="43.63099" lon="7.02803">
        <ele>174.51470947266</ele>
        <time>2012-06-11T11:43:58Z</time>
      </trkpt>
      <trkpt lat="43.63121" lon="7.02743">
        <ele>172.33819580078</ele>
        <time>2012-06-11T11:44:05Z</time>
      </trkpt>
      <trkpt lat="43.63134" lon="7.02707">
        <ele>176.63209533691</ele>
        <time>2012-06-11T11:44:09Z</time>
      </trkpt>
      <trkpt lat="43.63141" lon="7.02689">
        <ele>178.17004394531</ele>
        <time>2012-06-11T11:44:11Z</time>
      </trkpt>
      <trkpt lat="43.63155" lon="7.02636">
        <ele>179.18627929688</ele>
        <time>2012-06-11T11:44:17Z</time>
      </trkpt>
      <trkpt lat="43.63155" lon="7.02633">
        <ele>179.15881347656</ele>
        <time>2012-06-11T11:44:18Z</time>
      </trkpt>
      <trkpt lat="43.63153" lon="7.02628">
        <ele>179.04895019531</ele>
        <time>2012-06-11T11:44:20Z</time>
      </trkpt>
      <trkpt lat="43.63153" lon="7.0261">
        <ele>179.04895019531</ele>
        <time>2012-06-11T11:44:25Z</time>
      </trkpt>
      <trkpt lat="43.63153" lon="7.026">
        <ele>179.04895019531</ele>
        <time>2012-06-11T11:44:27Z</time>
      </trkpt>
      <trkpt lat="43.63153" lon="7.02589">
        <ele>179.021484375</ele>
        <time>2012-06-11T11:44:30Z</time>
      </trkpt>
      <trkpt lat="43.63149" lon="7.02566">
        <ele>179.13342285156</ele>
        <time>2012-06-11T11:44:35Z</time>
      </trkpt>
      <trkpt lat="43.63147" lon="7.02552">
        <ele>179.27728271484</ele>
        <time>2012-06-11T11:44:38Z</time>
      </trkpt>
      <trkpt lat="43.63143" lon="7.02551">
        <ele>179.13995361328</ele>
        <time>2012-06-11T11:44:39Z</time>
      </trkpt>
      <trkpt lat="43.63121" lon="7.02549">
        <ele>175.30294799805</ele>
        <time>2012-06-11T11:44:43Z</time>
      </trkpt>
      <trkpt lat="43.63094" lon="7.02547">
        <ele>171.66822814941</ele>
        <time>2012-06-11T11:44:47Z</time>
      </trkpt>
      <trkpt lat="43.6307" lon="7.02568">
        <ele>169.82080078125</ele>
        <time>2012-06-11T11:44:51Z</time>
      </trkpt>
      <trkpt lat="43.63066" lon="7.02575">
        <ele>169.46292114258</ele>
        <time>2012-06-11T11:44:52Z</time>
      </trkpt>
      <trkpt lat="43.63054" lon="7.02592">
        <ele>168.68453979492</ele>
        <time>2012-06-11T11:44:55Z</time>
      </trkpt>
      <trkpt lat="43.63049" lon="7.02594">
        <ele>169.15489196777</ele>
        <time>2012-06-11T11:44:56Z</time>
      </trkpt>
      <trkpt lat="43.63037" lon="7.02604">
        <ele>170.25009155273</ele>
        <time>2012-06-11T11:45:00Z</time>
      </trkpt>
      <trkpt lat="43.63034" lon="7.02616">
        <ele>169.59080505371</ele>
        <time>2012-06-11T11:45:02Z</time>
      </trkpt>
      <trkpt lat="43.6303" lon="7.0263">
        <ele>168.62088012695</ele>
        <time>2012-06-11T11:45:04Z</time>
      </trkpt>
      <trkpt lat="43.63027" lon="7.02637">
        <ele>168.30567932129</ele>
        <time>2012-06-11T11:45:05Z</time>
      </trkpt>
      <trkpt lat="43.63016" lon="7.02655">
        <ele>168.62149047852</ele>
        <time>2012-06-11T11:45:08Z</time>
      </trkpt>
      <trkpt lat="43.62999" lon="7.0268">
        <ele>169.24331665039</ele>
        <time>2012-06-11T11:45:13Z</time>
      </trkpt>
      <trkpt lat="43.62991" lon="7.0269">
        <ele>169.34292602539</ele>
        <time>2012-06-11T11:45:15Z</time>
      </trkpt>
      <trkpt lat="43.62986" lon="7.02705">
        <ele>168.01315307617</ele>
        <time>2012-06-11T11:45:17Z</time>
      </trkpt>
      <trkpt lat="43.62977" lon="7.02729">
        <ele>165.22038269043</ele>
        <time>2012-06-11T11:45:21Z</time>
      </trkpt>
      <trkpt lat="43.62964" lon="7.0274">
        <ele>164.52249145508</ele>
        <time>2012-06-11T11:45:24Z</time>
      </trkpt>
      <trkpt lat="43.62949" lon="7.02756">
        <ele>162.79849243164</ele>
        <time>2012-06-11T11:45:28Z</time>
      </trkpt>
      <trkpt lat="43.62938" lon="7.02776">
        <ele>160.20903015137</ele>
        <time>2012-06-11T11:45:31Z</time>
      </trkpt>
      <trkpt lat="43.62933" lon="7.02787">
        <ele>160</ele>
        <time>2012-06-11T11:45:34Z</time>
      </trkpt>
      <trkpt lat="43.62925" lon="7.0279">
        <ele>160</ele>
        <time>2012-06-11T11:45:38Z</time>
      </trkpt>
      <trkpt lat="43.62911" lon="7.02799">
        <ele>160</ele>
        <time>2012-06-11T11:45:43Z</time>
      </trkpt>
      <trkpt lat="43.62907" lon="7.02811">
        <ele>160</ele>
        <time>2012-06-11T11:45:46Z</time>
      </trkpt>
      <trkpt lat="43.62907" lon="7.0282">
        <ele>160</ele>
        <time>2012-06-11T11:45:48Z</time>
      </trkpt>
      <trkpt lat="43.62909" lon="7.02854">
        <ele>160</ele>
        <time>2012-06-11T11:45:56Z</time>
      </trkpt>
      <trkpt lat="43.6291" lon="7.02882">
        <ele>160</ele>
        <time>2012-06-11T11:46:03Z</time>
      </trkpt>
      <trkpt lat="43.62914" lon="7.02922">
        <ele>159</ele>
        <time>2012-06-11T11:46:13Z</time>
      </trkpt>
      <trkpt lat="43.62912" lon="7.02956">
        <ele>159</ele>
        <time>2012-06-11T11:46:21Z</time>
      </trkpt>
      <trkpt lat="43.62905" lon="7.0299">
        <ele>159</ele>
        <time>2012-06-11T11:46:29Z</time>
      </trkpt>
      <trkpt lat="43.62897" lon="7.03024">
        <ele>159</ele>
        <time>2012-06-11T11:46:37Z</time>
      </trkpt>
      <trkpt lat="43.62896" lon="7.03061">
        <ele>158.75897216797</ele>
        <time>2012-06-11T11:46:45Z</time>
      </trkpt>
      <trkpt lat="43.62902" lon="7.03103">
        <ele>158.51177978516</ele>
        <time>2012-06-11T11:46:54Z</time>
      </trkpt>
      <trkpt lat="43.62901" lon="7.03139">
        <ele>159.09906005859</ele>
        <time>2012-06-11T11:47:01Z</time>
      </trkpt>
      <trkpt lat="43.6289" lon="7.03177">
        <ele>160.27644348144</ele>
        <time>2012-06-11T11:47:09Z</time>
      </trkpt>
      <trkpt lat="43.62878" lon="7.03219">
        <ele>168.6065826416</ele>
        <time>2012-06-11T11:47:18Z</time>
      </trkpt>
      <trkpt lat="43.62881" lon="7.03241">
        <ele>169.29042053223</ele>
        <time>2012-06-11T11:47:23Z</time>
      </trkpt>
      <trkpt lat="43.62891" lon="7.03259">
        <ele>166.21644592285</ele>
        <time>2012-06-11T11:47:28Z</time>
      </trkpt>
      <trkpt lat="43.62913" lon="7.03298">
        <ele>161.09889221191</ele>
        <time>2012-06-11T11:47:39Z</time>
      </trkpt>
      <trkpt lat="43.62918" lon="7.03325">
        <ele>160.54229736328</ele>
        <time>2012-06-11T11:47:45Z</time>
      </trkpt>
      <trkpt lat="43.62918" lon="7.03368">
        <ele>162.86975097656</ele>
        <time>2012-06-11T11:47:54Z</time>
      </trkpt>
      <trkpt lat="43.62911" lon="7.03407">
        <ele>168.19165039062</ele>
        <time>2012-06-11T11:48:02Z</time>
      </trkpt>
      <trkpt lat="43.62901" lon="7.03434">
        <ele>173.29507446289</ele>
        <time>2012-06-11T11:48:08Z</time>
      </trkpt>
      <trkpt lat="43.6288" lon="7.0347">
        <ele>181.1593170166</ele>
        <time>2012-06-11T11:48:17Z</time>
      </trkpt>
      <trkpt lat="43.62862" lon="7.03505">
        <ele>192.11337280273</ele>
        <time>2012-06-11T11:48:25Z</time>
      </trkpt>
      <trkpt lat="43.6284" lon="7.03556">
        <ele>198.75662231445</ele>
        <time>2012-06-11T11:48:35Z</time>
      </trkpt>
      <trkpt lat="43.62835" lon="7.03582">
        <ele>199.71105957031</ele>
        <time>2012-06-11T11:48:40Z</time>
      </trkpt>
      <trkpt lat="43.62837" lon="7.03592">
        <ele>199.57118225098</ele>
        <time>2012-06-11T11:48:42Z</time>
      </trkpt>
      <trkpt lat="43.6284" lon="7.03613">
        <ele>199.54638671875</ele>
        <time>2012-06-11T11:48:47Z</time>
      </trkpt>
      <trkpt lat="43.6284" lon="7.03614">
        <ele>199.58155822754</ele>
        <time>2012-06-11T11:48:48Z</time>
      </trkpt>
      <trkpt lat="43.62838" lon="7.03613">
        <ele>199.67778015137</ele>
        <time>2012-06-11T11:48:50Z</time>
      </trkpt>
      <trkpt lat="43.62839" lon="7.03614">
        <ele>199.60133361816</ele>
        <time>2012-06-11T11:48:54Z</time>
      </trkpt>
    </trkseg>
  </trk>
</gpx>